Observation data for Lake Alan Henry on 06/21/2019      Previous  Date  Next       Current Mesonet Observations  Soil Data  Daily Summary Page  Observations in Plain Language
KAHS 210500Z 18013KT 30/17 A2975 RMK A01 T02980174  RH  047%=      5-min Rain = 0
KAHS 210501Z 19010KT 30/18 A2975 RMK A01 T02980175  RH  048%=      5-min Rain = 0
KAHS 210502Z 18009KT 30/18 A2975 RMK A01 T02970175  RH  048%=      5-min Rain = 0
KAHS 210503Z 19009KT 30/18 A2975 RMK A01 T02960176  RH  049%=      5-min Rain = 0
KAHS 210504Z 18007KT 29/18 A2975 RMK A01 T02940176  RH  049%=      5-min Rain = 0
KAHS 210505Z 18008KT 29/18 A2975 RMK A01 T02920176  RH  050%=      5-min Rain = 0
KAHS 210506Z 17008KT 29/18 A2975 RMK A01 T02910175  RH  050%=      5-min Rain = 0
KAHS 210507Z 18007KT 29/18 A2975 RMK A01 T02910175  RH  050%=      5-min Rain = 0
KAHS 210508Z 18009G15KT 29/18 A2975 RMK A01 T02900175  RH  050%=      5-min Rain = 0
KAHS 210509Z 19010G15KT 29/18 A2975 RMK A01 T02910175  RH  050%=      5-min Rain = 0
KAHS 210510Z 18011KT 29/18 A2975 RMK A01 T02920176  RH  050%=      5-min Rain = 0
KAHS 210511Z 19010KT 29/18 A2975 RMK A01 T02920175  RH  049%=      5-min Rain = 0
KAHS 210512Z 18011KT 29/18 A2975 RMK A01 T02920177  RH  050%=      5-min Rain = 0
KAHS 210513Z 19012KT 29/18 A2975 RMK A01 T02920177  RH  050%=      5-min Rain = 0
KAHS 210514Z 19010KT 29/18 A2975 RMK A01 T02930177  RH  050%=      5-min Rain = 0
KAHS 210515Z 19010KT 29/18 A2975 RMK A01 T02930178  RH  050%=      5-min Rain = 0
KAHS 210516Z 19011G17KT 29/18 A2975 RMK A01 T02920177  RH  050%=      5-min Rain = 0
KAHS 210517Z 20013KT 29/18 A2975 RMK A01 T02930176  RH  050%=      5-min Rain = 0
KAHS 210518Z 19011KT 29/18 A2975 RMK A01 T02940176  RH  049%=      5-min Rain = 0
KAHS 210519Z 20011KT 29/18 A2975 RMK A01 T02940176  RH  049%=      5-min Rain = 0
KAHS 210520Z 19011G17KT 29/18 A2975 RMK A01 T02930176  RH  049%=      5-min Rain = 0
KAHS 210521Z 19011KT 29/18 A2975 RMK A01 T02930176  RH  049%=      5-min Rain = 0
KAHS 210522Z 20011KT 29/18 A2975 RMK A01 T02930175  RH  049%=      5-min Rain = 0
KAHS 210523Z 19011KT 29/18 A2975 RMK A01 T02920176  RH  050%=      5-min Rain = 0
KAHS 210524Z 19012G17KT 29/18 A2975 RMK A01 T02920176  RH  050%=      5-min Rain = 0
KAHS 210525Z 19011KT 29/18 A2975 RMK A01 T02920177  RH  050%=      5-min Rain = 0
KAHS 210526Z 19012KT 29/18 A2975 RMK A01 T02910177  RH  050%=      5-min Rain = 0
KAHS 210527Z 19011G16KT 29/18 A2975 RMK A01 T02910177  RH  050%=      5-min Rain = 0
KAHS 210528Z 20011KT 29/18 A2975 RMK A01 T02910177  RH  050%=      5-min Rain = 0
KAHS 210529Z 20011KT 29/18 A2975 RMK A01 T02920178  RH  050%=      5-min Rain = 0
KAHS 210530Z 20009KT 29/18 A2975 RMK A01 T02910178  RH  051%=      5-min Rain = 0
KAHS 210531Z 19010G15KT 29/18 A2975 RMK A01 T02900179  RH  051%=      5-min Rain = 0
KAHS 210532Z 19008KT 29/18 A2975 RMK A01 T02890179  RH  052%=      5-min Rain = 0
KAHS 210533Z 19011KT 29/18 A2975 RMK A01 T02880179  RH  052%=      5-min Rain = 0
KAHS 210534Z 19009KT 29/18 A2975 RMK A01 T02880180  RH  052%=      5-min Rain = 0
KAHS 210535Z 19010KT 29/18 A2975 RMK A01 T02880180  RH  052%=      5-min Rain = 0
KAHS 210536Z 19010KT 29/18 A2975 RMK A01 T02880180  RH  052%=      5-min Rain = 0
KAHS 210537Z 19009KT 29/18 A2975 RMK A01 T02880180  RH  052%=      5-min Rain = 0
KAHS 210538Z 19008KT 29/18 A2975 RMK A01 T02880181  RH  053%=      5-min Rain = 0
KAHS 210539Z 19008KT 29/18 A2975 RMK A01 T02870181  RH  053%=      5-min Rain = 0
KAHS 210540Z 18009KT 29/18 A2975 RMK A01 T02860182  RH  053%=      5-min Rain = 0
KAHS 210541Z 18007KT 29/18 A2975 RMK A01 T02860182  RH  053%=      5-min Rain = 0
KAHS 210542Z 19007KT 29/18 A2975 RMK A01 T02850183  RH  054%=      5-min Rain = 0
KAHS 210543Z 19008KT 28/18 A2975 RMK A01 T02840183  RH  054%=      5-min Rain = 0
KAHS 210544Z 19008KT 28/18 A2975 RMK A01 T02840184  RH  055%=      5-min Rain = 0
KAHS 210545Z 19009KT 28/18 A2975 RMK A01 T02840184  RH  055%=      5-min Rain = 0
KAHS 210546Z 19011KT 28/18 A2975 RMK A01 T02840184  RH  054%=      5-min Rain = 0
KAHS 210547Z 19009KT 29/18 A2975 RMK A01 T02860184  RH  054%=      5-min Rain = 0
KAHS 210548Z 19010KT 29/18 A2975 RMK A01 T02860184  RH  054%=      5-min Rain = 0
KAHS 210549Z 19009KT 29/18 A2975 RMK A01 T02860184  RH  054%=      5-min Rain = 0
KAHS 210550Z 19009KT 29/18 A2975 RMK A01 T02860184  RH  054%=      5-min Rain = 0
KAHS 210551Z 19009KT 29/19 A2975 RMK A01 T02850185  RH  054%=      5-min Rain = 0
KAHS 210552Z 19010KT 29/19 A2975 RMK A01 T02850185  RH  054%=      5-min Rain = 0
KAHS 210553Z 19010KT 29/19 A2975 RMK A01 T02850185  RH  054%=      5-min Rain = 0
KAHS 210554Z 19009KT 29/19 A2975 RMK A01 T02850185  RH  054%=      5-min Rain = 0
KAHS 210555Z 19011KT 29/19 A2975 RMK A01 T02850185  RH  055%=      5-min Rain = 0
KAHS 210556Z 18011KT 29/19 A2975 RMK A01 T02850185  RH  054%=      5-min Rain = 0
KAHS 210557Z 19011KT 29/19 A2975 RMK A01 T02860185  RH  054%=      5-min Rain = 0
KAHS 210558Z 19009G14KT 29/19 A2975 RMK A01 T02860185  RH  055%=      5-min Rain = 0
KAHS 210559Z 19011KT 29/19 A2975 RMK A01 T02850185  RH  055%=      5-min Rain = 0
KAHS 210600Z 19011KT 29/19 A2975 RMK A01 T02860185  RH  055%=      5-min Rain = 0
KAHS 210601Z 19010KT 29/19 A2975 RMK A01 T02850185  RH  055%=      5-min Rain = 0
KAHS 210602Z 20009KT 29/19 A2975 RMK A01 T02850185  RH  055%=      5-min Rain = 0
KAHS 210603Z 20011KT 28/19 A2975 RMK A01 T02840185  RH  055%=      5-min Rain = 0
KAHS 210604Z 20011KT 28/18 A2975 RMK A01 T02840184  RH  055%=      5-min Rain = 0
KAHS 210605Z 19010KT 28/18 A2975 RMK A01 T02840184  RH  055%=      5-min Rain = 0
KAHS 210606Z 19009KT 28/18 A2975 RMK A01 T02840184  RH  055%=      5-min Rain = 0
KAHS 210607Z 19010G15KT 28/19 A2975 RMK A01 T02830185  RH  055%=      5-min Rain = 0
KAHS 210608Z 19011KT 28/18 A2975 RMK A01 T02830184  RH  055%=      5-min Rain = 0
KAHS 210609Z 19010KT 28/19 A2975 RMK A01 T02830185  RH  055%=      5-min Rain = 0
KAHS 210610Z 19010KT 28/19 A2975 RMK A01 T02820185  RH  056%=      5-min Rain = 0
KAHS 210611Z 19011KT 28/19 A2975 RMK A01 T02820185  RH  056%=      5-min Rain = 0
KAHS 210612Z 19009KT 28/19 A2975 RMK A01 T02820185  RH  056%=      5-min Rain = 0
KAHS 210613Z 19008KT 28/19 A2975 RMK A01 T02810185  RH  056%=      5-min Rain = 0
KAHS 210614Z 19009KT 28/19 A2975 RMK A01 T02800186  RH  056%=      5-min Rain = 0
KAHS 210615Z 19010KT 28/19 A2975 RMK A01 T02790186  RH  057%=      5-min Rain = 0
KAHS 210616Z 19010KT 28/19 A2975 RMK A01 T02790186  RH  057%=      5-min Rain = 0
KAHS 210617Z 19009KT 28/19 A2975 RMK A01 T02800186  RH  057%=      5-min Rain = 0
KAHS 210618Z 19009KT 28/19 A2975 RMK A01 T02800186  RH  057%=      5-min Rain = 0
KAHS 210619Z 19008KT 28/19 A2975 RMK A01 T02790186  RH  057%=      5-min Rain = 0
KAHS 210620Z 19009KT 28/19 A2975 RMK A01 T02780186  RH  057%=      5-min Rain = 0
KAHS 210621Z 19009KT 28/19 A2975 RMK A01 T02770186  RH  058%=      5-min Rain = 0
KAHS 210622Z 19010KT 28/19 A2975 RMK A01 T02780186  RH  057%=      5-min Rain = 0
KAHS 210623Z 19009KT 28/19 A2975 RMK A01 T02780186  RH  057%=      5-min Rain = 0
KAHS 210624Z 19009KT 28/19 A2975 RMK A01 T02780186  RH  057%=      5-min Rain = 0
KAHS 210625Z 19009KT 28/19 A2975 RMK A01 T02770186  RH  058%=      5-min Rain = 0
KAHS 210626Z 19009KT 28/19 A2975 RMK A01 T02770186  RH  058%=      5-min Rain = 0
KAHS 210627Z 19009KT 28/19 A2975 RMK A01 T02760186  RH  058%=      5-min Rain = 0
KAHS 210628Z 20008KT 28/19 A2975 RMK A01 T02760186  RH  058%=      5-min Rain = 0
KAHS 210629Z 19008KT 28/19 A2975 RMK A01 T02750185  RH  058%=      5-min Rain = 0
KAHS 210630Z 19009KT 28/19 A2975 RMK A01 T02750185  RH  058%=      5-min Rain = 0
KAHS 210631Z 19009KT 28/19 A2975 RMK A01 T02750185  RH  058%=      5-min Rain = 0
KAHS 210632Z 20008KT 28/18 A2975 RMK A01 T02760184  RH  058%=      5-min Rain = 0
KAHS 210633Z 19007KT 28/19 A2975 RMK A01 T02750185  RH  058%=      5-min Rain = 0
KAHS 210634Z 19008KT 27/19 A2975 RMK A01 T02740185  RH  058%=      5-min Rain = 0
KAHS 210635Z 19007KT 27/19 A2975 RMK A01 T02730185  RH  058%=      5-min Rain = 0
KAHS 210636Z 19008KT 27/19 A2975 RMK A01 T02730185  RH  059%=      5-min Rain = 0
KAHS 210637Z 19009KT 27/19 A2975 RMK A01 T02730185  RH  059%=      5-min Rain = 0
KAHS 210638Z 18009KT 27/19 A2975 RMK A01 T02730185  RH  058%=      5-min Rain = 0
KAHS 210639Z 19008KT 27/19 A2975 RMK A01 T02740185  RH  058%=      5-min Rain = 0
KAHS 210640Z 18007KT 27/19 A2976 RMK A01 T02740185  RH  058%=      5-min Rain = 0
KAHS 210641Z 18009KT 27/19 A2975 RMK A01 T02730186  RH  059%=      5-min Rain = 0
KAHS 210642Z 18009KT 27/19 A2975 RMK A01 T02730186  RH  059%=      5-min Rain = 0
KAHS 210643Z 18009KT 27/19 A2975 RMK A01 T02730185  RH  059%=      5-min Rain = 0
KAHS 210644Z 19009KT 27/19 A2976 RMK A01 T02730186  RH  059%=      5-min Rain = 0
KAHS 210645Z 18010KT 27/19 A2976 RMK A01 T02730186  RH  059%=      5-min Rain = 0
KAHS 210646Z 19010KT 27/19 A2975 RMK A01 T02740185  RH  058%=      5-min Rain = 0
KAHS 210647Z 19010KT 27/19 A2975 RMK A01 T02740185  RH  058%=      5-min Rain = 0
KAHS 210648Z 19012KT 27/19 A2975 RMK A01 T02740185  RH  058%=      5-min Rain = 0
KAHS 210649Z 19010KT 28/18 A2975 RMK A01 T02760184  RH  058%=      5-min Rain = 0
KAHS 210650Z 19009KT 28/19 A2975 RMK A01 T02750185  RH  058%=      5-min Rain = 0
KAHS 210651Z 19012KT 28/18 A2975 RMK A01 T02750184  RH  057%=      5-min Rain = 0
KAHS 210652Z 19010KT 28/18 A2975 RMK A01 T02770183  RH  057%=      5-min Rain = 0
KAHS 210653Z 20010KT 28/18 A2975 RMK A01 T02770183  RH  057%=      5-min Rain = 0
KAHS 210654Z 20011KT 28/18 A2975 RMK A01 T02770182  RH  056%=      5-min Rain = 0
KAHS 210655Z 19010KT 28/18 A2975 RMK A01 T02770182  RH  056%=      5-min Rain = 0
KAHS 210656Z 19010KT 28/18 A2975 RMK A01 T02760182  RH  057%=      5-min Rain = 0
KAHS 210657Z 19012KT 28/18 A2975 RMK A01 T02760182  RH  057%=      5-min Rain = 0
KAHS 210658Z 20010G15KT 28/18 A2975 RMK A01 T02760181  RH  056%=      5-min Rain = 0
KAHS 210659Z 20013KT 28/18 A2975 RMK A01 T02750181  RH  057%=      5-min Rain = 0
KAHS 210700Z 19011KT 28/18 A2975 RMK A01 T02760181  RH  056%=      5-min Rain = 0
KAHS 210701Z 19010KT 28/18 A2975 RMK A01 T02760181  RH  056%=      5-min Rain = 0
KAHS 210702Z 20011KT 28/18 A2975 RMK A01 T02750181  RH  057%=      5-min Rain = 0
KAHS 210703Z 19011KT 27/18 A2975 RMK A01 T02740181  RH  057%=      5-min Rain = 0
KAHS 210704Z 19011G17KT 27/18 A2975 RMK A01 T02740180  RH  057%=      5-min Rain = 0
KAHS 210705Z 19010KT 27/18 A2975 RMK A01 T02740180  RH  057%=      5-min Rain = 0
KAHS 210706Z 20008KT 27/18 A2975 RMK A01 T02730180  RH  057%=      5-min Rain = 0
KAHS 210707Z 19009KT 27/18 A2975 RMK A01 T02720180  RH  057%=      5-min Rain = 0
KAHS 210708Z 19010KT 27/18 A2975 RMK A01 T02720180  RH  057%=      5-min Rain = 0
KAHS 210709Z 19008KT 27/18 A2975 RMK A01 T02710180  RH  057%=      5-min Rain = 0
KAHS 210710Z 19010KT 27/18 A2975 RMK A01 T02710180  RH  057%=      5-min Rain = 0
KAHS 210711Z 19010KT 27/18 A2975 RMK A01 T02710180  RH  057%=      5-min Rain = 0
KAHS 210712Z 19008KT 27/18 A2975 RMK A01 T02710180  RH  058%=      5-min Rain = 0
KAHS 210713Z 19010KT 27/18 A2975 RMK A01 T02700180  RH  058%=      5-min Rain = 0
KAHS 210714Z 19010KT 27/18 A2975 RMK A01 T02700180  RH  058%=      5-min Rain = 0
KAHS 210715Z 19009KT 27/18 A2975 RMK A01 T02700180  RH  058%=      5-min Rain = 0
KAHS 210718Z 20011KT 27/18 A2975 RMK A01 T02700179  RH  057%=      5-min Rain = 0
KAHS 210719Z 19011G17KT 27/18 A2975 RMK A01 T02700179  RH  057%=      5-min Rain = 0
KAHS 210720Z 20008KT 27/18 A2975 RMK A01 T02710179  RH  057%=      5-min Rain = 0
KAHS 210721Z 19008KT 27/18 A2975 RMK A01 T02690179  RH  058%=      5-min Rain = 0
KAHS 210722Z 20009KT 27/18 A2975 RMK A01 T02690178  RH  057%=      5-min Rain = 0
KAHS 210723Z 19009KT 27/18 A2975 RMK A01 T02690178  RH  057%=      5-min Rain = 0
KAHS 210724Z 19009KT 27/18 A2975 RMK A01 T02690177  RH  057%=      5-min Rain = 0
KAHS 210725Z 20008KT 27/18 A2975 RMK A01 T02690177  RH  057%=      5-min Rain = 0
KAHS 210726Z 19009KT 27/18 A2975 RMK A01 T02690177  RH  057%=      5-min Rain = 0
KAHS 210727Z 19009KT 27/18 A2975 RMK A01 T02690177  RH  057%=      5-min Rain = 0
KAHS 210728Z 19008KT 27/18 A2975 RMK A01 T02680176  RH  057%=      5-min Rain = 0
KAHS 210729Z 19010KT 27/18 A2975 RMK A01 T02680176  RH  057%=      5-min Rain = 0
KAHS 210730Z 20008KT 27/18 A2975 RMK A01 T02680176  RH  057%=      5-min Rain = 0
KAHS 210731Z 19010KT 27/18 A2975 RMK A01 T02680175  RH  057%=      5-min Rain = 0
KAHS 210732Z 19008KT 27/18 A2975 RMK A01 T02680175  RH  057%=      5-min Rain = 0
KAHS 210733Z 19009KT 27/18 A2975 RMK A01 T02670175  RH  057%=      5-min Rain = 0
KAHS 210734Z 19008KT 27/18 A2975 RMK A01 T02670175  RH  057%=      5-min Rain = 0
KAHS 210735Z 19009KT 27/18 A2975 RMK A01 T02660175  RH  057%=      5-min Rain = 0
KAHS 210736Z 19009KT 27/18 A2975 RMK A01 T02670175  RH  057%=      5-min Rain = 0
KAHS 210737Z 19008KT 27/18 A2975 RMK A01 T02670175  RH  057%=      5-min Rain = 0
KAHS 210738Z 19007KT 27/17 A2975 RMK A01 T02670174  RH  057%=      5-min Rain = 0
KAHS 210739Z 19008KT 27/18 A2975 RMK A01 T02670175  RH  057%=      5-min Rain = 0
KAHS 210740Z 19007KT 27/18 A2975 RMK A01 T02670175  RH  057%=      5-min Rain = 0
KAHS 210741Z 19008KT 27/18 A2975 RMK A01 T02650175  RH  058%=      5-min Rain = 0
KAHS 210742Z 19009KT 27/18 A2975 RMK A01 T02650175  RH  058%=      5-min Rain = 0
KAHS 210743Z 20008KT 27/17 A2975 RMK A01 T02660174  RH  057%=      5-min Rain = 0
KAHS 210744Z 19008KT 27/17 A2975 RMK A01 T02660174  RH  057%=      5-min Rain = 0
KAHS 210745Z 20008KT 27/18 A2975 RMK A01 T02660175  RH  057%=      5-min Rain = 0
KAHS 210746Z 20008KT 27/17 A2975 RMK A01 T02650174  RH  057%=      5-min Rain = 0
KAHS 210747Z 19007KT 27/18 A2975 RMK A01 T02650175  RH  057%=      5-min Rain = 0
KAHS 210748Z 19008KT 27/18 A2975 RMK A01 T02650175  RH  058%=      5-min Rain = 0
KAHS 210749Z 20006KT 26/18 A2975 RMK A01 T02630175  RH  058%=      5-min Rain = 0
KAHS 210750Z 19007KT 26/18 A2975 RMK A01 T02620175  RH  059%=      5-min Rain = 0
KAHS 210751Z 19007KT 26/18 A2975 RMK A01 T02620175  RH  059%=      5-min Rain = 0
KAHS 210752Z 19008KT 26/18 A2975 RMK A01 T02620175  RH  059%=      5-min Rain = 0
KAHS 210753Z 19007KT 26/17 A2975 RMK A01 T02620174  RH  058%=      5-min Rain = 0
KAHS 210754Z 19006KT 26/18 A2975 RMK A01 T02620175  RH  059%=      5-min Rain = 0
KAHS 210755Z 19008KT 26/18 A2975 RMK A01 T02620175  RH  059%=      5-min Rain = 0
KAHS 210756Z 19008KT 26/18 A2975 RMK A01 T02620175  RH  059%=      5-min Rain = 0
KAHS 210757Z 19007KT 26/18 A2975 RMK A01 T02620175  RH  059%=      5-min Rain = 0
KAHS 210758Z 19007KT 26/18 A2975 RMK A01 T02620175  RH  059%=      5-min Rain = 0
KAHS 210759Z 19006KT 26/18 A2975 RMK A01 T02610175  RH  059%=      5-min Rain = 0
KAHS 210800Z 19008KT 26/18 A2975 RMK A01 T02610175  RH  059%=      5-min Rain = 0
KAHS 210801Z 19007KT 26/18 A2975 RMK A01 T02610175  RH  059%=      5-min Rain = 0
KAHS 210802Z 19008KT 26/18 A2975 RMK A01 T02610175  RH  059%=      5-min Rain = 0
KAHS 210803Z 19007KT 26/18 A2975 RMK A01 T02600175  RH  059%=      5-min Rain = 0
KAHS 210804Z 19007KT 26/18 A2975 RMK A01 T02600176  RH  060%=      5-min Rain = 0
KAHS 210805Z 18007KT 26/18 A2975 RMK A01 T02600176  RH  060%=      5-min Rain = 0
KAHS 210806Z 19006KT 26/18 A2975 RMK A01 T02600176  RH  060%=      5-min Rain = 0
KAHS 210807Z 18007KT 26/18 A2975 RMK A01 T02590176  RH  060%=      5-min Rain = 0
KAHS 210808Z 19007KT 26/18 A2975 RMK A01 T02600177  RH  060%=      5-min Rain = 0
KAHS 210809Z 18007KT 26/18 A2975 RMK A01 T02590177  RH  060%=      5-min Rain = 0
KAHS 210810Z 19008KT 26/18 A2975 RMK A01 T02580177  RH  061%=      5-min Rain = 0
KAHS 210811Z 18008KT 26/18 A2975 RMK A01 T02580177  RH  061%=      5-min Rain = 0
KAHS 210812Z 18008KT 26/18 A2975 RMK A01 T02580177  RH  061%=      5-min Rain = 0
KAHS 210813Z 18008KT 26/18 A2975 RMK A01 T02590178  RH  061%=      5-min Rain = 0
KAHS 210814Z 18007KT 26/18 A2975 RMK A01 T02590178  RH  061%=      5-min Rain = 0
KAHS 210815Z 19006KT 26/18 A2975 RMK A01 T02590179  RH  061%=      5-min Rain = 0
KAHS 210816Z 19007KT 26/18 A2975 RMK A01 T02580179  RH  062%=      5-min Rain = 0
KAHS 210817Z 19007KT 26/18 A2975 RMK A01 T02580179  RH  062%=      5-min Rain = 0
KAHS 210818Z 19008KT 26/18 A2975 RMK A01 T02580180  RH  062%=      5-min Rain = 0
KAHS 210819Z 19008KT 26/18 A2975 RMK A01 T02580180  RH  062%=      5-min Rain = 0
KAHS 210820Z 19008KT 26/18 A2975 RMK A01 T02580181  RH  062%=      5-min Rain = 0
KAHS 210821Z 19007KT 26/18 A2975 RMK A01 T02580181  RH  062%=      5-min Rain = 0
KAHS 210822Z 19008KT 26/18 A2975 RMK A01 T02580182  RH  063%=      5-min Rain = 0
KAHS 210823Z 18007KT 26/18 A2975 RMK A01 T02570182  RH  063%=      5-min Rain = 0
KAHS 210824Z 19007KT 26/18 A2975 RMK A01 T02570182  RH  063%=      5-min Rain = 0
KAHS 210825Z 19008KT 26/18 A2975 RMK A01 T02570183  RH  063%=      5-min Rain = 0
KAHS 210826Z 19008KT 26/18 A2975 RMK A01 T02570183  RH  063%=      5-min Rain = 0
KAHS 210827Z 19009KT 26/18 A2975 RMK A01 T02580182  RH  063%=      5-min Rain = 0
KAHS 210828Z 19008KT 26/18 A2975 RMK A01 T02580183  RH  063%=      5-min Rain = 0
KAHS 210829Z 19011KT 26/18 A2975 RMK A01 T02590182  RH  063%=      5-min Rain = 0
KAHS 210830Z 19008KT 26/18 A2975 RMK A01 T02600182  RH  062%=      5-min Rain = 0
KAHS 210831Z 19009KT 26/18 A2975 RMK A01 T02600182  RH  062%=      5-min Rain = 0
KAHS 210832Z 19009KT 26/18 A2975 RMK A01 T02600182  RH  062%=      5-min Rain = 0
KAHS 210833Z 19008KT 26/18 A2975 RMK A01 T02600182  RH  062%=      5-min Rain = 0
KAHS 210834Z 19010KT 26/18 A2975 RMK A01 T02600182  RH  062%=      5-min Rain = 0
KAHS 210835Z 19009KT 26/18 A2975 RMK A01 T02610182  RH  062%=      5-min Rain = 0
KAHS 210836Z 19010KT 26/18 A2975 RMK A01 T02610182  RH  062%=      5-min Rain = 0
KAHS 210837Z 19011KT 26/18 A2975 RMK A01 T02610182  RH  062%=      5-min Rain = 0
KAHS 210838Z 20010KT 26/18 A2975 RMK A01 T02620183  RH  062%=      5-min Rain = 0
KAHS 210839Z 20010KT 26/18 A2975 RMK A01 T02610183  RH  062%=      5-min Rain = 0
KAHS 210840Z 20009KT 26/18 A2975 RMK A01 T02610183  RH  062%=      5-min Rain = 0
KAHS 210841Z 20009G14KT 26/18 A2976 RMK A01 T02610183  RH  062%=      5-min Rain = 0
KAHS 210842Z 20010KT 26/18 A2976 RMK A01 T02600183  RH  062%=      5-min Rain = 0
KAHS 210843Z 20011KT 26/18 A2976 RMK A01 T02600183  RH  062%=      5-min Rain = 0
KAHS 210844Z 20012KT 26/18 A2976 RMK A01 T02600183  RH  062%=      5-min Rain = 0
KAHS 210845Z 20010KT 26/18 A2976 RMK A01 T02600183  RH  063%=      5-min Rain = 0
KAHS 210846Z 20010KT 26/18 A2976 RMK A01 T02600184  RH  063%=      5-min Rain = 0
KAHS 210847Z 20011KT 26/18 A2976 RMK A01 T02600184  RH  063%=      5-min Rain = 0
KAHS 210848Z 20010KT 26/19 A2976 RMK A01 T02600185  RH  063%=      5-min Rain = 0
KAHS 210849Z 20011KT 26/19 A2976 RMK A01 T02600185  RH  063%=      5-min Rain = 0
KAHS 210850Z 20012KT 26/19 A2976 RMK A01 T02600185  RH  063%=      5-min Rain = 0
KAHS 210851Z 20011KT 26/19 A2976 RMK A01 T02600185  RH  063%=      5-min Rain = 0
KAHS 210852Z 19011KT 26/19 A2975 RMK A01 T02600185  RH  064%=      5-min Rain = 0
KAHS 210853Z 19010KT 26/19 A2976 RMK A01 T02590186  RH  064%=      5-min Rain = 0
KAHS 210854Z 20010KT 26/19 A2976 RMK A01 T02590186  RH  064%=      5-min Rain = 0
KAHS 210855Z 20010KT 26/19 A2976 RMK A01 T02580186  RH  064%=      5-min Rain = 0
KAHS 210856Z 19010KT 26/19 A2976 RMK A01 T02580186  RH  065%=      5-min Rain = 0
KAHS 210857Z 20009KT 26/19 A2976 RMK A01 T02580187  RH  065%=      5-min Rain = 0
KAHS 210858Z 19009KT 26/19 A2976 RMK A01 T02570187  RH  065%=      5-min Rain = 0
KAHS 210859Z 20009KT 26/19 A2976 RMK A01 T02570187  RH  065%=      5-min Rain = 0
KAHS 210900Z 19009KT 26/19 A2976 RMK A01 T02570187  RH  065%=      5-min Rain = 0
KAHS 210901Z 20008KT 26/19 A2976 RMK A01 T02560187  RH  066%=      5-min Rain = 0
KAHS 210902Z 20008KT 26/19 A2976 RMK A01 T02550188  RH  066%=      5-min Rain = 0
KAHS 210903Z 19008KT 26/19 A2976 RMK A01 T02550188  RH  066%=      5-min Rain = 0
KAHS 210904Z 19009KT 25/19 A2976 RMK A01 T02540188  RH  067%=      5-min Rain = 0
KAHS 210905Z 19009KT 26/19 A2976 RMK A01 T02550189  RH  067%=      5-min Rain = 0
KAHS 210906Z 19009KT 26/19 A2976 RMK A01 T02550189  RH  067%=      5-min Rain = 0
KAHS 210907Z 19007KT 26/19 A2976 RMK A01 T02550189  RH  067%=      5-min Rain = 0
KAHS 210908Z 19007KT 25/19 A2976 RMK A01 T02540189  RH  067%=      5-min Rain = 0
KAHS 210909Z 19008KT 25/19 A2976 RMK A01 T02530189  RH  068%=      5-min Rain = 0
KAHS 210910Z 19007KT 25/19 A2976 RMK A01 T02530190  RH  068%=      5-min Rain = 0
KAHS 210911Z 19008KT 25/19 A2976 RMK A01 T02530190  RH  068%=      5-min Rain = 0
KAHS 210912Z 19008KT 25/19 A2976 RMK A01 T02530190  RH  068%=      5-min Rain = 0
KAHS 210913Z 20007KT 25/19 A2976 RMK A01 T02530190  RH  068%=      5-min Rain = 0
KAHS 210914Z 20007KT 25/19 A2976 RMK A01 T02520190  RH  068%=      5-min Rain = 0
KAHS 210915Z 19007KT 25/19 A2976 RMK A01 T02530191  RH  069%=      5-min Rain = 0
KAHS 210916Z 20007KT 25/19 A2976 RMK A01 T02520191  RH  069%=      5-min Rain = 0
KAHS 210917Z 20007KT 25/19 A2976 RMK A01 T02520191  RH  069%=      5-min Rain = 0
KAHS 210918Z 20008KT 25/19 A2976 RMK A01 T02520191  RH  069%=      5-min Rain = 0
KAHS 210919Z 20008KT 25/19 A2976 RMK A01 T02520192  RH  069%=      5-min Rain = 0
KAHS 210920Z 20008KT 25/19 A2976 RMK A01 T02520192  RH  069%=      5-min Rain = 0
KAHS 210921Z 20008KT 25/19 A2976 RMK A01 T02530192  RH  069%=      5-min Rain = 0
KAHS 210922Z 20006KT 25/19 A2976 RMK A01 T02530192  RH  069%=      5-min Rain = 0
KAHS 210923Z 19008KT 25/19 A2976 RMK A01 T02520193  RH  069%=      5-min Rain = 0
KAHS 210924Z 19008KT 25/19 A2976 RMK A01 T02530193  RH  069%=      5-min Rain = 0
KAHS 210925Z 20008KT 25/19 A2976 RMK A01 T02530193  RH  069%=      5-min Rain = 0
KAHS 210926Z 20006KT 25/19 A2976 RMK A01 T02520193  RH  070%=      5-min Rain = 0
KAHS 210927Z 20007KT 25/19 A2976 RMK A01 T02520193  RH  070%=      5-min Rain = 0
KAHS 210928Z 19006KT 25/19 A2976 RMK A01 T02520194  RH  070%=      5-min Rain = 0
KAHS 210929Z 19006KT 25/19 A2976 RMK A01 T02520194  RH  070%=      5-min Rain = 0
KAHS 210930Z 19008KT 25/19 A2976 RMK A01 T02520194  RH  070%=      5-min Rain = 0
KAHS 210931Z 20006KT 25/19 A2976 RMK A01 T02520194  RH  070%=      5-min Rain = 0
KAHS 210932Z 19006KT 25/19 A2976 RMK A01 T02510194  RH  070%=      5-min Rain = 0
KAHS 210933Z 18006KT 25/19 A2976 RMK A01 T02520194  RH  071%=      5-min Rain = 0
KAHS 210934Z 19007KT 25/19 A2976 RMK A01 T02510194  RH  071%=      5-min Rain = 0
KAHS 210935Z 19006KT 25/20 A2976 RMK A01 T02510195  RH  071%=      5-min Rain = 0
KAHS 210936Z 19008KT 25/20 A2976 RMK A01 T02510195  RH  071%=      5-min Rain = 0
KAHS 210937Z 19007KT 25/20 A2976 RMK A01 T02510195  RH  071%=      5-min Rain = 0
KAHS 210938Z 19006KT 25/20 A2976 RMK A01 T02500195  RH  071%=      5-min Rain = 0
KAHS 210939Z 19005KT 25/20 A2976 RMK A01 T02500195  RH  071%=      5-min Rain = 0
KAHS 210940Z 19005KT 25/20 A2976 RMK A01 T02500195  RH  072%=      5-min Rain = 0
KAHS 210941Z 19007KT 25/20 A2976 RMK A01 T02490195  RH  072%=      5-min Rain = 0
KAHS 210942Z 19007KT 25/20 A2976 RMK A01 T02500196  RH  072%=      5-min Rain = 0
KAHS 210943Z 19007KT 25/20 A2976 RMK A01 T02500196  RH  072%=      5-min Rain = 0
KAHS 210944Z 19007KT 25/20 A2976 RMK A01 T02500196  RH  072%=      5-min Rain = 0
KAHS 210945Z 19006KT 25/20 A2976 RMK A01 T02500196  RH  072%=      5-min Rain = 0
KAHS 210946Z 19006KT 25/20 A2976 RMK A01 T02500196  RH  072%=      5-min Rain = 0
KAHS 210947Z 19007KT 25/20 A2976 RMK A01 T02490196  RH  072%=      5-min Rain = 0
KAHS 210948Z 18007KT 25/20 A2976 RMK A01 T02500197  RH  072%=      5-min Rain = 0
KAHS 210949Z 18007KT 25/20 A2976 RMK A01 T02500197  RH  072%=      5-min Rain = 0
KAHS 210950Z 19008KT 25/20 A2976 RMK A01 T02500197  RH  072%=      5-min Rain = 0
KAHS 210951Z 19008KT 25/20 A2976 RMK A01 T02500197  RH  072%=      5-min Rain = 0
KAHS 210952Z 19009KT 25/20 A2976 RMK A01 T02510197  RH  072%=      5-min Rain = 0
KAHS 210953Z 19007KT 25/20 A2976 RMK A01 T02510197  RH  072%=      5-min Rain = 0
KAHS 210954Z 20009KT 25/20 A2976 RMK A01 T02510197  RH  072%=      5-min Rain = 0
KAHS 210955Z 20009KT 25/20 A2976 RMK A01 T02510197  RH  072%=      5-min Rain = 0
KAHS 210956Z 20009KT 25/20 A2976 RMK A01 T02520197  RH  072%=      5-min Rain = 0
KAHS 210957Z 20009KT 25/20 A2976 RMK A01 T02520197  RH  072%=      5-min Rain = 0
KAHS 210958Z 20009KT 25/20 A2976 RMK A01 T02520197  RH  072%=      5-min Rain = 0
KAHS 210959Z 20009KT 25/20 A2976 RMK A01 T02530198  RH  071%=      5-min Rain = 0
KAHS 211000Z 20009KT 25/20 A2976 RMK A01 T02530198  RH  071%=      5-min Rain = 0
KAHS 211001Z 20008KT 25/20 A2976 RMK A01 T02520197  RH  072%=      5-min Rain = 0
KAHS 211002Z 20011KT 25/20 A2976 RMK A01 T02520198  RH  072%=      5-min Rain = 0
KAHS 211003Z 19010KT 25/20 A2976 RMK A01 T02530198  RH  071%=      5-min Rain = 0
KAHS 211004Z 20009KT 25/20 A2976 RMK A01 T02530198  RH  071%=      5-min Rain = 0
KAHS 211005Z 20009KT 25/20 A2976 RMK A01 T02520198  RH  072%=      5-min Rain = 0
KAHS 211006Z 20009KT 25/20 A2976 RMK A01 T02520198  RH  072%=      5-min Rain = 0
KAHS 211007Z 20010KT 25/20 A2976 RMK A01 T02520198  RH  072%=      5-min Rain = 0
KAHS 211008Z 20010KT 25/20 A2977 RMK A01 T02530198  RH  072%=      5-min Rain = 0
KAHS 211009Z 20008KT 25/20 A2977 RMK A01 T02530198  RH  072%=      5-min Rain = 0
KAHS 211010Z 20010KT 25/20 A2977 RMK A01 T02520198  RH  072%=      5-min Rain = 0
KAHS 211011Z 20010KT 25/20 A2977 RMK A01 T02530198  RH  072%=      5-min Rain = 0
KAHS 211012Z 20010KT 25/20 A2977 RMK A01 T02520198  RH  072%=      5-min Rain = 0
KAHS 211013Z 20011KT 25/20 A2977 RMK A01 T02530199  RH  072%=      5-min Rain = 0
KAHS 211014Z 20010KT 25/20 A2977 RMK A01 T02530199  RH  072%=      5-min Rain = 0
KAHS 211015Z 20008KT 25/20 A2977 RMK A01 T02530199  RH  072%=      5-min Rain = 0
KAHS 211016Z 20007KT 25/20 A2977 RMK A01 T02520199  RH  072%=      5-min Rain = 0
KAHS 211017Z 20009KT 25/20 A2977 RMK A01 T02510199  RH  073%=      5-min Rain = 0
KAHS 211018Z 21012KT 25/20 A2977 RMK A01 T02510199  RH  073%=      5-min Rain = 0
KAHS 211019Z 20010KT 25/20 A2977 RMK A01 T02520199  RH  072%=      5-min Rain = 0
KAHS 211020Z 20010KT 25/20 A2977 RMK A01 T02520199  RH  072%=      5-min Rain = 0
KAHS 211021Z 20009KT 25/20 A2977 RMK A01 T02520199  RH  073%=      5-min Rain = 0
KAHS 211022Z 20011KT 25/20 A2977 RMK A01 T02520199  RH  073%=      5-min Rain = 0
KAHS 211023Z 20009KT 25/20 A2977 RMK A01 T02520200  RH  073%=      5-min Rain = 0
KAHS 211024Z 20008KT 25/20 A2977 RMK A01 T02520200  RH  073%=      5-min Rain = 0
KAHS 211025Z 20009KT 25/20 A2977 RMK A01 T02520200  RH  073%=      5-min Rain = 0
KAHS 211026Z 20009G14KT 25/20 A2977 RMK A01 T02510200  RH  073%=      5-min Rain = 0
KAHS 211027Z 21010KT 25/20 A2977 RMK A01 T02510200  RH  073%=      5-min Rain = 0
KAHS 211028Z 20008KT 25/20 A2977 RMK A01 T02510200  RH  073%=      5-min Rain = 0
KAHS 211029Z 20009KT 25/20 A2977 RMK A01 T02510200  RH  073%=      5-min Rain = 0
KAHS 211030Z 20009KT 25/20 A2977 RMK A01 T02500200  RH  073%=      5-min Rain = 0
KAHS 211031Z 20010KT 25/20 A2977 RMK A01 T02510200  RH  073%=      5-min Rain = 0
KAHS 211032Z 20009KT 25/20 A2977 RMK A01 T02520200  RH  073%=      5-min Rain = 0
KAHS 211033Z 20009KT 25/20 A2977 RMK A01 T02510200  RH  073%=      5-min Rain = 0
KAHS 211034Z 20009KT 25/20 A2977 RMK A01 T02500200  RH  074%=      5-min Rain = 0
KAHS 211035Z 20008KT 25/20 A2977 RMK A01 T02500200  RH  074%=      5-min Rain = 0
KAHS 211036Z 20008KT 25/20 A2977 RMK A01 T02500200  RH  074%=      5-min Rain = 0
KAHS 211037Z 20009KT 25/20 A2977 RMK A01 T02500200  RH  074%=      5-min Rain = 0
KAHS 211038Z 20009KT 25/20 A2977 RMK A01 T02500201  RH  074%=      5-min Rain = 0
KAHS 211039Z 20008KT 25/20 A2977 RMK A01 T02500201  RH  074%=      5-min Rain = 0
KAHS 211040Z 20008KT 25/20 A2977 RMK A01 T02500200  RH  074%=      5-min Rain = 0
KAHS 211041Z 20008KT 25/20 A2977 RMK A01 T02490201  RH  075%=      5-min Rain = 0
KAHS 211042Z 20009KT 25/20 A2977 RMK A01 T02490201  RH  075%=      5-min Rain = 0
KAHS 211043Z 20008KT 25/20 A2977 RMK A01 T02490201  RH  075%=      5-min Rain = 0
KAHS 211044Z 19008KT 25/20 A2977 RMK A01 T02500201  RH  074%=      5-min Rain = 0
KAHS 211045Z 20009KT 25/20 A2977 RMK A01 T02500201  RH  074%=      5-min Rain = 0
KAHS 211046Z 20008KT 25/20 A2977 RMK A01 T02500201  RH  074%=      5-min Rain = 0
KAHS 211047Z 20008KT 25/20 A2977 RMK A01 T02500201  RH  074%=      5-min Rain = 0
KAHS 211048Z 20008KT 25/20 A2977 RMK A01 T02500201  RH  075%=      5-min Rain = 0
KAHS 211049Z 20006KT 25/20 A2977 RMK A01 T02490201  RH  075%=      5-min Rain = 0
KAHS 211050Z 20008KT 25/20 A2977 RMK A01 T02480201  RH  075%=      5-min Rain = 0
KAHS 211051Z 21007KT 25/20 A2977 RMK A01 T02480202  RH  075%=      5-min Rain = 0
KAHS 211052Z 21007KT 25/20 A2977 RMK A01 T02480201  RH  075%=      5-min Rain = 0
KAHS 211053Z 20008KT 25/20 A2977 RMK A01 T02490201  RH  075%=      5-min Rain = 0
KAHS 211054Z 21006KT 25/20 A2978 RMK A01 T02500202  RH  075%=      5-min Rain = 0
KAHS 211055Z 21007KT 25/20 A2977 RMK A01 T02500202  RH  075%=      5-min Rain = 0
KAHS 211056Z 20007KT 25/20 A2977 RMK A01 T02500202  RH  075%=      5-min Rain = 0
KAHS 211057Z 21007KT 25/20 A2978 RMK A01 T02490202  RH  075%=      5-min Rain = 0
KAHS 211058Z 20009KT 25/20 A2978 RMK A01 T02490202  RH  075%=      5-min Rain = 0
KAHS 211059Z 20008KT 25/20 A2978 RMK A01 T02490202  RH  075%=      5-min Rain = 0
KAHS 211100Z 20006KT 25/20 A2978 RMK A01 T02490202  RH  075%=      5-min Rain = 0
KAHS 211101Z 20008KT 25/20 A2978 RMK A01 T02490202  RH  075%=      5-min Rain = 0
KAHS 211102Z 20009KT 25/20 A2978 RMK A01 T02490202  RH  075%=      5-min Rain = 0
KAHS 211103Z 20009KT 25/20 A2978 RMK A01 T02490202  RH  075%=      5-min Rain = 0
KAHS 211104Z 20010KT 25/20 A2978 RMK A01 T02500202  RH  075%=      5-min Rain = 0
KAHS 211105Z 20009KT 25/20 A2978 RMK A01 T02500202  RH  075%=      5-min Rain = 0
KAHS 211106Z 20009KT 25/20 A2978 RMK A01 T02510202  RH  075%=      5-min Rain = 0
KAHS 211107Z 20008KT 25/20 A2978 RMK A01 T02510203  RH  075%=      5-min Rain = 0
KAHS 211108Z 20007KT 25/20 A2978 RMK A01 T02500202  RH  075%=      5-min Rain = 0
KAHS 211109Z 21009KT 25/20 A2978 RMK A01 T02500202  RH  075%=      5-min Rain = 0
KAHS 211110Z 21009KT 25/20 A2978 RMK A01 T02500202  RH  075%=      5-min Rain = 0
KAHS 211111Z 20008KT 25/20 A2978 RMK A01 T02500202  RH  075%=      5-min Rain = 0
KAHS 211112Z 20007KT 25/20 A2978 RMK A01 T02500203  RH  075%=      5-min Rain = 0
KAHS 211113Z 21008KT 25/20 A2978 RMK A01 T02500203  RH  075%=      5-min Rain = 0
KAHS 211114Z 21009KT 25/20 A2978 RMK A01 T02500203  RH  075%=      5-min Rain = 0
KAHS 211115Z 21008KT 25/20 A2978 RMK A01 T02500203  RH  075%=      5-min Rain = 0
KAHS 211116Z 21008KT 25/20 A2978 RMK A01 T02500203  RH  075%=      5-min Rain = 0
KAHS 211117Z 21009KT 25/20 A2978 RMK A01 T02500203  RH  075%=      5-min Rain = 0
KAHS 211118Z 22007KT 25/20 A2979 RMK A01 T02500203  RH  075%=      5-min Rain = 0
KAHS 211119Z 21008KT 25/20 A2979 RMK A01 T02500203  RH  075%=      5-min Rain = 0
KAHS 211120Z 21008KT 25/20 A2979 RMK A01 T02500203  RH  075%=      5-min Rain = 0
KAHS 211121Z 22008KT 25/20 A2979 RMK A01 T02500203  RH  075%=      5-min Rain = 0
KAHS 211122Z 21007KT 25/20 A2979 RMK A01 T02500203  RH  075%=      5-min Rain = 0
KAHS 211123Z 21007KT 25/20 A2979 RMK A01 T02500203  RH  075%=      5-min Rain = 0
KAHS 211124Z 23007KT 25/20 A2979 RMK A01 T02500204  RH  076%=      5-min Rain = 0
KAHS 211125Z 22007KT 25/20 A2979 RMK A01 T02490203  RH  076%=      5-min Rain = 0
KAHS 211126Z 22005KT 25/20 A2979 RMK A01 T02490203  RH  076%=      5-min Rain = 0
KAHS 211127Z 21005KT 25/20 A2979 RMK A01 T02490203  RH  076%=      5-min Rain = 0
KAHS 211128Z 21007KT 25/20 A2979 RMK A01 T02480203  RH  076%=      5-min Rain = 0
KAHS 211129Z 21007KT 25/20 A2979 RMK A01 T02490203  RH  076%=      5-min Rain = 0
KAHS 211130Z 21007KT 25/20 A2979 RMK A01 T02490203  RH  076%=      5-min Rain = 0
KAHS 211131Z 22007KT 25/20 A2979 RMK A01 T02490203  RH  076%=      5-min Rain = 0
KAHS 211132Z 21005KT 25/20 A2979 RMK A01 T02490203  RH  076%=      5-min Rain = 0
KAHS 211133Z 22005KT 25/20 A2979 RMK A01 T02480203  RH  076%=      5-min Rain = 0
KAHS 211134Z 21005KT 25/20 A2979 RMK A01 T02480202  RH  076%=      5-min Rain = 0
KAHS 211135Z 21004KT 25/20 A2979 RMK A01 T02480202  RH  076%=      5-min Rain = 0
KAHS 211136Z 21004KT 25/20 A2979 RMK A01 T02470202  RH  076%=      5-min Rain = 0
KAHS 211137Z 21004KT 25/20 A2979 RMK A01 T02470202  RH  076%=      5-min Rain = 0
KAHS 211138Z 21004KT 25/20 A2979 RMK A01 T02470202  RH  076%=      5-min Rain = 0
KAHS 211139Z 22005KT 25/20 A298 RMK A01 T02460202  RH  076%=      5-min Rain = 0
KAHS 211140Z 21003KT 25/20 A2979 RMK A01 T02460202  RH  076%=      5-min Rain = 0
KAHS 211141Z 22005KT 25/20 A2979 RMK A01 T02470202  RH  076%=      5-min Rain = 0
KAHS 211142Z 21004KT 25/20 A298 RMK A01 T02470202  RH  076%=      5-min Rain = 0
KAHS 211143Z 21004KT 25/20 A298 RMK A01 T02470202  RH  076%=      5-min Rain = 0
KAHS 211144Z 21003KT 25/20 A298 RMK A01 T02460202  RH  076%=      5-min Rain = 0
KAHS 211145Z 21004KT 25/20 A298 RMK A01 T02460202  RH  076%=      5-min Rain = 0
KAHS 211146Z 22004KT 25/20 A298 RMK A01 T02470202  RH  076%=      5-min Rain = 0
KAHS 211147Z 22004KT 25/20 A298 RMK A01 T02470202  RH  076%=      5-min Rain = 0
KAHS 211148Z 22004KT 25/20 A298 RMK A01 T02470202  RH  076%=      5-min Rain = 0
KAHS 211149Z 22004KT 25/20 A298 RMK A01 T02470202  RH  076%=      5-min Rain = 0
KAHS 211150Z 22004KT 25/20 A298 RMK A01 T02470202  RH  076%=      5-min Rain = 0
KAHS 211151Z 21004KT 25/20 A298 RMK A01 T02480202  RH  076%=      5-min Rain = 0
KAHS 211152Z 21004KT 25/20 A298 RMK A01 T02480202  RH  076%=      5-min Rain = 0
KAHS 211153Z 21004KT 25/20 A2981 RMK A01 T02480202  RH  075%=      5-min Rain = 0
KAHS 211154Z 21004KT 25/20 A2981 RMK A01 T02480202  RH  075%=      5-min Rain = 0
KAHS 211155Z 21004KT 25/20 A2981 RMK A01 T02480202  RH  075%=      5-min Rain = 0
KAHS 211156Z 21005KT 25/20 A2981 RMK A01 T02480202  RH  076%=      5-min Rain = 0
KAHS 211157Z 20005KT 25/20 A2981 RMK A01 T02470202  RH  076%=      5-min Rain = 0
KAHS 211158Z 20006KT 25/20 A2981 RMK A01 T02470202  RH  076%=      5-min Rain = 0
KAHS 211159Z 20005KT 25/20 A2981 RMK A01 T02480202  RH  076%=      5-min Rain = 0
KAHS 211200Z 19006KT 25/20 A298 RMK A01 T02470202  RH  076%=      5-min Rain = 0
KAHS 211201Z 19006KT 25/20 A298 RMK A01 T02470202  RH  076%=      5-min Rain = 0
KAHS 211202Z 19007KT 25/20 A2981 RMK A01 T02450202  RH  077%=      5-min Rain = 0
KAHS 211203Z 19006KT 25/20 A2981 RMK A01 T02450202  RH  077%=      5-min Rain = 0
KAHS 211204Z 19007KT 25/20 A2981 RMK A01 T02450202  RH  077%=      5-min Rain = 0
KAHS 211205Z 18006KT 25/20 A2981 RMK A01 T02450202  RH  077%=      5-min Rain = 0
KAHS 211206Z 19007KT 25/20 A2981 RMK A01 T02460203  RH  077%=      5-min Rain = 0
KAHS 211207Z 19007KT 25/20 A2981 RMK A01 T02470203  RH  077%=      5-min Rain = 0
KAHS 211208Z 19007KT 25/20 A2981 RMK A01 T02470202  RH  076%=      5-min Rain = 0
KAHS 211209Z 18009KT 25/20 A298 RMK A01 T02480203  RH  076%=      5-min Rain = 0
KAHS 211210Z 18009KT 25/20 A298 RMK A01 T02500204  RH  075%=      5-min Rain = 0
KAHS 211211Z 18009KT 25/20 A298 RMK A01 T02510204  RH  075%=      5-min Rain = 0
KAHS 211212Z 19008KT 25/20 A298 RMK A01 T02520203  RH  074%=      5-min Rain = 0
KAHS 211213Z 19008KT 25/20 A298 RMK A01 T02530204  RH  074%=      5-min Rain = 0
KAHS 211214Z 19008KT 25/20 A298 RMK A01 T02530204  RH  074%=      5-min Rain = 0
KAHS 211215Z 18008KT 25/20 A2981 RMK A01 T02530204  RH  074%=      5-min Rain = 0
KAHS 211216Z 19010KT 25/20 A2981 RMK A01 T02530204  RH  074%=      5-min Rain = 0
KAHS 211217Z 19008KT 25/20 A2981 RMK A01 T02540204  RH  074%=      5-min Rain = 0
KAHS 211218Z 19009KT 25/20 A2981 RMK A01 T02540204  RH  074%=      5-min Rain = 0
KAHS 211219Z 19009KT 26/20 A2981 RMK A01 T02550204  RH  073%=      5-min Rain = 0
KAHS 211220Z 19008KT 26/21 A2981 RMK A01 T02550205  RH  073%=      5-min Rain = 0
KAHS 211221Z 19007KT 26/21 A2981 RMK A01 T02550205  RH  074%=      5-min Rain = 0
KAHS 211222Z 19008KT 26/21 A2981 RMK A01 T02550205  RH  074%=      5-min Rain = 0
KAHS 211223Z 19008KT 25/21 A2981 RMK A01 T02540205  RH  074%=      5-min Rain = 0
KAHS 211224Z 19008KT 25/21 A2981 RMK A01 T02540206  RH  075%=      5-min Rain = 0
KAHS 211225Z 20007KT 25/21 A2981 RMK A01 T02530206  RH  075%=      5-min Rain = 0
KAHS 211226Z 20008KT 25/21 A2981 RMK A01 T02530206  RH  075%=      5-min Rain = 0
KAHS 211227Z 19008KT 25/21 A2981 RMK A01 T02530206  RH  075%=      5-min Rain = 0
KAHS 211228Z 19007KT 25/21 A2981 RMK A01 T02530206  RH  075%=      5-min Rain = 0
KAHS 211229Z 20008KT 25/21 A298 RMK A01 T02530206  RH  075%=      5-min Rain = 0
KAHS 211230Z 20009KT 25/21 A2981 RMK A01 T02530206  RH  075%=      5-min Rain = 0
KAHS 211231Z 20008KT 25/21 A2981 RMK A01 T02530206  RH  075%=      5-min Rain = 0
KAHS 211232Z 20009KT 25/21 A2981 RMK A01 T02530206  RH  075%=      5-min Rain = 0
KAHS 211233Z 20009KT 25/21 A2981 RMK A01 T02530206  RH  075%=      5-min Rain = 0
KAHS 211234Z 20009KT 25/21 A298 RMK A01 T02540206  RH  075%=      5-min Rain = 0
KAHS 211235Z 20009KT 25/21 A2981 RMK A01 T02540206  RH  075%=      5-min Rain = 0
KAHS 211236Z 19009KT 25/21 A298 RMK A01 T02540206  RH  075%=      5-min Rain = 0
KAHS 211237Z 20009KT 25/21 A298 RMK A01 T02540207  RH  075%=      5-min Rain = 0
KAHS 211238Z 20009KT 26/21 A298 RMK A01 T02550207  RH  075%=      5-min Rain = 0
KAHS 211239Z 20009KT 26/21 A298 RMK A01 T02550206  RH  074%=      5-min Rain = 0
KAHS 211240Z 19009KT 26/21 A298 RMK A01 T02560206  RH  074%=      5-min Rain = 0
KAHS 211241Z 19009KT 26/21 A298 RMK A01 T02560207  RH  074%=      5-min Rain = 0
KAHS 211242Z 19012KT 26/21 A298 RMK A01 T02560206  RH  074%=      5-min Rain = 0
KAHS 211243Z 19009KT 26/21 A298 RMK A01 T02580206  RH  073%=      5-min Rain = 0
KAHS 211244Z 19009KT 26/21 A298 RMK A01 T02580207  RH  073%=      5-min Rain = 0
KAHS 211245Z 19009KT 26/21 A298 RMK A01 T02580207  RH  074%=      5-min Rain = 0
KAHS 211246Z 19009G14KT 26/21 A298 RMK A01 T02580207  RH  074%=      5-min Rain = 0
KAHS 211247Z 19008KT 26/21 A298 RMK A01 T02580207  RH  074%=      5-min Rain = 0
KAHS 211248Z 19011KT 26/21 A298 RMK A01 T02580207  RH  073%=      5-min Rain = 0
KAHS 211249Z 20010KT 26/21 A298 RMK A01 T02600206  RH  072%=      5-min Rain = 0
KAHS 211250Z 19011KT 26/21 A298 RMK A01 T02600206  RH  072%=      5-min Rain = 0
KAHS 211251Z 20011KT 26/21 A298 RMK A01 T02610206  RH  071%=      5-min Rain = 0
KAHS 211252Z 19010KT 26/21 A298 RMK A01 T02620206  RH  071%=      5-min Rain = 0
KAHS 211253Z 19011KT 26/21 A298 RMK A01 T02620207  RH  072%=      5-min Rain = 0
KAHS 211254Z 19012KT 26/21 A298 RMK A01 T02620206  RH  071%=      5-min Rain = 0
KAHS 211255Z 19010KT 26/21 A298 RMK A01 T02620206  RH  071%=      5-min Rain = 0
KAHS 211256Z 19012KT 26/21 A298 RMK A01 T02630207  RH  071%=      5-min Rain = 0
KAHS 211257Z 19011KT 26/21 A2981 RMK A01 T02630206  RH  071%=      5-min Rain = 0
KAHS 211258Z 19012KT 26/21 A298 RMK A01 T02630206  RH  071%=      5-min Rain = 0
KAHS 211259Z 19012KT 26/21 A298 RMK A01 T02630206  RH  071%=      5-min Rain = 0
KAHS 211300Z 19010KT 26/21 A298 RMK A01 T02640207  RH  071%=      5-min Rain = 0
KAHS 211301Z 19009KT 26/21 A298 RMK A01 T02630207  RH  071%=      5-min Rain = 0
KAHS 211302Z 19009KT 26/21 A298 RMK A01 T02640208  RH  071%=      5-min Rain = 0
KAHS 211303Z 19010KT 26/21 A298 RMK A01 T02640207  RH  071%=      5-min Rain = 0
KAHS 211304Z 20009KT 26/21 A2981 RMK A01 T02640208  RH  071%=      5-min Rain = 0
KAHS 211305Z 20009KT 26/21 A2981 RMK A01 T02640209  RH  072%=      5-min Rain = 0
KAHS 211306Z 20013KT 27/21 A2981 RMK A01 T02650208  RH  071%=      5-min Rain = 0
KAHS 211307Z 20011KT 27/21 A2981 RMK A01 T02660207  RH  070%=      5-min Rain = 0
KAHS 211308Z 20013G18KT 27/21 A2981 RMK A01 T02660206  RH  070%=      5-min Rain = 0
KAHS 211309Z 20009KT 27/21 A2981 RMK A01 T02670207  RH  069%=      5-min Rain = 0
KAHS 211310Z 19011KT 27/21 A2981 RMK A01 T02680207  RH  069%=      5-min Rain = 0
KAHS 211311Z 20010KT 27/21 A2981 RMK A01 T02670207  RH  069%=      5-min Rain = 0
KAHS 211312Z 19010KT 27/21 A2981 RMK A01 T02680207  RH  069%=      5-min Rain = 0
KAHS 211313Z 19009KT 27/21 A2981 RMK A01 T02680208  RH  070%=      5-min Rain = 0
KAHS 211314Z 20010KT 27/21 A2981 RMK A01 T02690208  RH  069%=      5-min Rain = 0
KAHS 211315Z 19009KT 27/21 A2981 RMK A01 T02690208  RH  069%=      5-min Rain = 0
KAHS 211316Z 19009KT 27/21 A2981 RMK A01 T02690208  RH  069%=      5-min Rain = 0
KAHS 211317Z 19009KT 27/21 A2981 RMK A01 T02690210  RH  070%=      5-min Rain = 0
KAHS 211318Z 19010KT 27/21 A2981 RMK A01 T02700210  RH  070%=      5-min Rain = 0
KAHS 211319Z 19011KT 27/21 A2981 RMK A01 T02700209  RH  069%=      5-min Rain = 0
KAHS 211320Z 19011KT 27/21 A2981 RMK A01 T02700208  RH  069%=      5-min Rain = 0
KAHS 211321Z 20010KT 27/21 A2981 RMK A01 T02700208  RH  068%=      5-min Rain = 0
KAHS 211322Z 19013KT 27/21 A2981 RMK A01 T02710207  RH  068%=      5-min Rain = 0
KAHS 211323Z 20014KT 27/21 A2981 RMK A01 T02710206  RH  068%=      5-min Rain = 0
KAHS 211324Z 20012KT 27/21 A2981 RMK A01 T02710206  RH  067%=      5-min Rain = 0
KAHS 211325Z 19009KT 27/21 A2981 RMK A01 T02720207  RH  068%=      5-min Rain = 0
KAHS 211326Z 19012G17KT 27/21 A2981 RMK A01 T02720208  RH  068%=      5-min Rain = 0
KAHS 211327Z 19011KT 27/21 A2981 RMK A01 T02720207  RH  068%=      5-min Rain = 0
KAHS 211328Z 19013KT 27/21 A2981 RMK A01 T02720207  RH  068%=      5-min Rain = 0
KAHS 211329Z 19010KT 27/21 A2981 RMK A01 T02730208  RH  068%=      5-min Rain = 0
KAHS 211330Z 20010KT 27/21 A2981 RMK A01 T02730210  RH  068%=      5-min Rain = 0
KAHS 211331Z 20012KT 27/21 A2981 RMK A01 T02730209  RH  068%=      5-min Rain = 0
KAHS 211332Z 19013KT 27/21 A2981 RMK A01 T02740206  RH  067%=      5-min Rain = 0
KAHS 211333Z 20012KT 27/21 A2981 RMK A01 T02740206  RH  067%=      5-min Rain = 0
KAHS 211334Z 20013KT 27/21 A2981 RMK A01 T02740206  RH  066%=      5-min Rain = 0
KAHS 211335Z 20013KT 28/21 A2981 RMK A01 T02750206  RH  066%=      5-min Rain = 0
KAHS 211336Z 20011KT 28/21 A2981 RMK A01 T02750207  RH  067%=      5-min Rain = 0
KAHS 211337Z 20012KT 28/21 A2981 RMK A01 T02750208  RH  067%=      5-min Rain = 0
KAHS 211338Z 20012G18KT 28/21 A2981 RMK A01 T02760207  RH  066%=      5-min Rain = 0
KAHS 211339Z 20010KT 28/21 A2981 RMK A01 T02760208  RH  066%=      5-min Rain = 0
KAHS 211340Z 20011KT 28/21 A2981 RMK A01 T02770209  RH  066%=      5-min Rain = 0
KAHS 211341Z 20013KT 28/21 A2981 RMK A01 T02770208  RH  066%=      5-min Rain = 0
KAHS 211342Z 20013KT 28/21 A2981 RMK A01 T02770207  RH  065%=      5-min Rain = 0
KAHS 211343Z 20013KT 28/21 A2981 RMK A01 T02780207  RH  065%=      5-min Rain = 0
KAHS 211344Z 20013KT 28/21 A2981 RMK A01 T02780207  RH  065%=      5-min Rain = 0
KAHS 211345Z 20014KT 28/21 A2981 RMK A01 T02790207  RH  065%=      5-min Rain = 0
KAHS 211346Z 20014KT 28/20 A2981 RMK A01 T02790204  RH  064%=      5-min Rain = 0
KAHS 211347Z 20011G16KT 28/21 A2981 RMK A01 T02790206  RH  065%=      5-min Rain = 0
KAHS 211348Z 20014KT 28/21 A2981 RMK A01 T02790206  RH  064%=      5-min Rain = 0
KAHS 211349Z 20014KT 28/21 A2981 RMK A01 T02800205  RH  064%=      5-min Rain = 0
KAHS 211350Z 19013KT 28/21 A2981 RMK A01 T02800206  RH  064%=      5-min Rain = 0
KAHS 211351Z 20013G18KT 28/21 A2981 RMK A01 T02800207  RH  064%=      5-min Rain = 0
KAHS 211352Z 21015KT 28/21 A2981 RMK A01 T02810205  RH  064%=      5-min Rain = 0
KAHS 211353Z 20013KT 28/20 A2981 RMK A01 T02810204  RH  063%=      5-min Rain = 0
KAHS 211354Z 20015KT 28/20 A2981 RMK A01 T02800204  RH  063%=      5-min Rain = 0
KAHS 211355Z 20012KT 28/21 A2981 RMK A01 T02810205  RH  063%=      5-min Rain = 0
KAHS 211356Z 20013KT 28/21 A2981 RMK A01 T02810206  RH  063%=      5-min Rain = 0
KAHS 211357Z 19016KT 28/21 A2981 RMK A01 T02820206  RH  063%=      5-min Rain = 0
KAHS 211358Z 20016KT 28/20 A2981 RMK A01 T02820204  RH  063%=      5-min Rain = 0
KAHS 211359Z 20016KT 28/21 A2981 RMK A01 T02820205  RH  063%=      5-min Rain = 0
KAHS 211400Z 20015KT 28/20 A2981 RMK A01 T02820204  RH  062%=      5-min Rain = 0
KAHS 211401Z 19014KT 28/20 A2981 RMK A01 T02820203  RH  062%=      5-min Rain = 0
KAHS 211402Z 20010KT 28/21 A2981 RMK A01 T02830206  RH  063%=      5-min Rain = 0
KAHS 211403Z 19014KT 28/21 A2981 RMK A01 T02840207  RH  063%=      5-min Rain = 0
KAHS 211404Z 19015KT 28/21 A2981 RMK A01 T02840206  RH  063%=      5-min Rain = 0
KAHS 211405Z 20014KT 28/21 A2981 RMK A01 T02840205  RH  062%=      5-min Rain = 0
KAHS 211406Z 20016KT 28/20 A2981 RMK A01 T02840204  RH  062%=      5-min Rain = 0
KAHS 211407Z 20014KT 28/20 A2981 RMK A01 T02840204  RH  062%=      5-min Rain = 0
KAHS 211408Z 20015KT 28/20 A2981 RMK A01 T02840204  RH  062%=      5-min Rain = 0
KAHS 211409Z 21013KT 28/20 A2981 RMK A01 T02840204  RH  062%=      5-min Rain = 0
KAHS 211410Z 20011KT 29/21 A2982 RMK A01 T02850206  RH  062%=      5-min Rain = 0
KAHS 211411Z 20014KT 29/21 A2981 RMK A01 T02860206  RH  062%=      5-min Rain = 0
KAHS 211412Z 19014KT 29/21 A2982 RMK A01 T02860205  RH  062%=      5-min Rain = 0
KAHS 211413Z 19012KT 29/21 A2982 RMK A01 T02870206  RH  062%=      5-min Rain = 0
KAHS 211414Z 20012KT 29/21 A2982 RMK A01 T02870206  RH  062%=      5-min Rain = 0
KAHS 211415Z 20013KT 29/21 A2982 RMK A01 T02870206  RH  062%=      5-min Rain = 0
KAHS 211416Z 20011KT 29/21 A2982 RMK A01 T02870207  RH  062%=      5-min Rain = 0
KAHS 211417Z 21012KT 29/21 A2982 RMK A01 T02880207  RH  062%=      5-min Rain = 0
KAHS 211418Z 20013KT 29/21 A2982 RMK A01 T02880206  RH  061%=      5-min Rain = 0
KAHS 211419Z 20013G18KT 29/21 A2982 RMK A01 T02880205  RH  061%=      5-min Rain = 0
KAHS 211420Z 21014G19KT 29/20 A2982 RMK A01 T02870204  RH  061%=      5-min Rain = 0
KAHS 211421Z 21015KT 29/20 A2982 RMK A01 T02880204  RH  061%=      5-min Rain = 0
KAHS 211422Z 20013KT 29/21 A2982 RMK A01 T02880205  RH  061%=      5-min Rain = 0
KAHS 211423Z 21014KT 29/20 A2982 RMK A01 T02880204  RH  060%=      5-min Rain = 0
KAHS 211424Z 21014KT 29/20 A2982 RMK A01 T02880204  RH  060%=      5-min Rain = 0
KAHS 211425Z 22017KT 29/20 A2982 RMK A01 T02880203  RH  060%=      5-min Rain = 0
KAHS 211426Z 22013KT 29/20 A2982 RMK A01 T02890203  RH  060%=      5-min Rain = 0
KAHS 211427Z 22014KT 29/21 A2982 RMK A01 T02890205  RH  060%=      5-min Rain = 0
KAHS 211428Z 21014KT 29/21 A2982 RMK A01 T02900206  RH  061%=      5-min Rain = 0
KAHS 211429Z 20012KT 29/21 A2982 RMK A01 T02900207  RH  061%=      5-min Rain = 0
KAHS 211430Z 20014KT 29/21 A2982 RMK A01 T02910207  RH  061%=      5-min Rain = 0
KAHS 211431Z 20014KT 29/21 A2982 RMK A01 T02910205  RH  060%=      5-min Rain = 0
KAHS 211432Z 21012KT 29/21 A2982 RMK A01 T02910206  RH  060%=      5-min Rain = 0
KAHS 211433Z 20010KT 29/21 A2982 RMK A01 T02920209  RH  061%=      5-min Rain = 0
KAHS 211434Z 20011KT 29/21 A2982 RMK A01 T02940209  RH  060%=      5-min Rain = 0
KAHS 211435Z 19013KT 29/21 A2982 RMK A01 T02940208  RH  060%=      5-min Rain = 0
KAHS 211436Z 20013KT 29/21 A2982 RMK A01 T02940206  RH  059%=      5-min Rain = 0
KAHS 211437Z 20012G17KT 29/21 A2982 RMK A01 T02940207  RH  059%=      5-min Rain = 0
KAHS 211438Z 20014KT 29/21 A2982 RMK A01 T02940206  RH  059%=      5-min Rain = 0
KAHS 211439Z 20013KT 29/21 A2982 RMK A01 T02940206  RH  059%=      5-min Rain = 0
KAHS 211440Z 21013KT 29/21 A2982 RMK A01 T02930206  RH  059%=      5-min Rain = 0
KAHS 211441Z 21012KT 29/21 A2982 RMK A01 T02940206  RH  059%=      5-min Rain = 0
KAHS 211442Z 22012KT 29/21 A2982 RMK A01 T02940205  RH  059%=      5-min Rain = 0
KAHS 211443Z 21012KT 30/21 A2982 RMK A01 T02950206  RH  059%=      5-min Rain = 0
KAHS 211444Z 21012KT 30/21 A2982 RMK A01 T02960207  RH  059%=      5-min Rain = 0
KAHS 211445Z 22014KT 30/21 A2982 RMK A01 T02960206  RH  058%=      5-min Rain = 0
KAHS 211446Z 21010KT 30/21 A2982 RMK A01 T02960207  RH  059%=      5-min Rain = 0
KAHS 211447Z 21012KT 30/21 A2982 RMK A01 T02970207  RH  059%=      5-min Rain = 0
KAHS 211448Z 22010KT 30/21 A2982 RMK A01 T02970208  RH  059%=      5-min Rain = 0
KAHS 211449Z 21011KT 30/21 A2982 RMK A01 T02980208  RH  058%=      5-min Rain = 0
KAHS 211450Z 20012KT 30/21 A2982 RMK A01 T02990209  RH  058%=      5-min Rain = 0
KAHS 211451Z 21012KT 30/21 A2982 RMK A01 T03000209  RH  058%=      5-min Rain = 0
KAHS 211452Z 21011KT 30/21 A2982 RMK A01 T02990208  RH  058%=      5-min Rain = 0
KAHS 211453Z 20012KT 30/21 A2982 RMK A01 T02990208  RH  058%=      5-min Rain = 0
KAHS 211454Z 22010KT 30/21 A2982 RMK A01 T03000209  RH  058%=      5-min Rain = 0
KAHS 211455Z 22015KT 30/21 A2982 RMK A01 T03000207  RH  058%=      5-min Rain = 0
KAHS 211456Z 21014KT 30/21 A2982 RMK A01 T02990206  RH  057%=      5-min Rain = 0
KAHS 211457Z 22011KT 30/21 A2982 RMK A01 T03000208  RH  058%=      5-min Rain = 0
KAHS 211458Z 21011KT 30/21 A2982 RMK A01 T03010209  RH  058%=      5-min Rain = 0
KAHS 211459Z 22012KT 30/21 A2982 RMK A01 T03020208  RH  057%=      5-min Rain = 0
KAHS 211500Z 21010G15KT 30/21 A2982 RMK A01 T03020210  RH  058%=      5-min Rain = 0
KAHS 211501Z 21012KT 30/21 A2982 RMK A01 T03030209  RH  057%=      5-min Rain = 0
KAHS 211502Z 21012KT 30/21 A2982 RMK A01 T03040209  RH  057%=      5-min Rain = 0
KAHS 211503Z 20013KT 30/21 A2982 RMK A01 T03030207  RH  056%=      5-min Rain = 0
KAHS 211504Z 20011KT 30/21 A2982 RMK A01 T03040208  RH  057%=      5-min Rain = 0
KAHS 211505Z 20010KT 31/21 A2982 RMK A01 T03050209  RH  057%=      5-min Rain = 0
KAHS 211506Z 22009G14KT 31/21 A2982 RMK A01 T03060212  RH  057%=      5-min Rain = 0
KAHS 211507Z 21014KT 31/21 A2982 RMK A01 T03070209  RH  056%=      5-min Rain = 0
KAHS 211508Z 22013KT 31/21 A2982 RMK A01 T03060206  RH  055%=      5-min Rain = 0
KAHS 211509Z 21010KT 31/21 A2982 RMK A01 T03060208  RH  056%=      5-min Rain = 0
KAHS 211510Z 22010KT 31/21 A2982 RMK A01 T03070209  RH  056%=      5-min Rain = 0
KAHS 211511Z 20009KT 31/21 A2982 RMK A01 T03080210  RH  056%=      5-min Rain = 0
KAHS 211512Z 20011KT 31/21 A2982 RMK A01 T03100211  RH  056%=      5-min Rain = 0
KAHS 211513Z 21010KT 31/21 A2982 RMK A01 T03090206  RH  054%=      5-min Rain = 0
KAHS 211514Z 21009KT 31/21 A2982 RMK A01 T03090209  RH  055%=      5-min Rain = 0
KAHS 211515Z 22009G14KT 31/21 A2982 RMK A01 T03100209  RH  055%=      5-min Rain = 0
KAHS 211516Z 22009KT 31/21 A2982 RMK A01 T03110207  RH  054%=      5-min Rain = 0
KAHS 211517Z 22012KT 31/21 A2982 RMK A01 T03120207  RH  054%=      5-min Rain = 0
KAHS 211518Z 22011KT 31/21 A2982 RMK A01 T03120206  RH  053%=      5-min Rain = 0
KAHS 211519Z 21011KT 31/21 A2982 RMK A01 T03130207  RH  053%=      5-min Rain = 0
KAHS 211520Z 20014KT 31/20 A2982 RMK A01 T03130204  RH  052%=      5-min Rain = 0
KAHS 211521Z 21012KT 31/20 A2982 RMK A01 T03120204  RH  053%=      5-min Rain = 0
KAHS 211522Z 21011KT 31/21 A2982 RMK A01 T03130206  RH  053%=      5-min Rain = 0
KAHS 211523Z 20012G18KT 31/21 A2982 RMK A01 T03140208  RH  053%=      5-min Rain = 0
KAHS 211524Z 21013G18KT 31/20 A2982 RMK A01 T03140204  RH  052%=      5-min Rain = 0
KAHS 211525Z 21012KT 31/20 A2982 RMK A01 T03130203  RH  052%=      5-min Rain = 0
KAHS 211526Z 21012KT 31/20 A2982 RMK A01 T03140204  RH  052%=      5-min Rain = 0
KAHS 211527Z 22015KT 31/20 A2982 RMK A01 T03140202  RH  051%=      5-min Rain = 0
KAHS 211528Z 22012KT 31/20 A2982 RMK A01 T03140201  RH  051%=      5-min Rain = 0
KAHS 211529Z 22013KT 32/20 A2982 RMK A01 T03150202  RH  051%=      5-min Rain = 0
KAHS 211530Z 22011KT 32/20 A2982 RMK A01 T03150203  RH  051%=      5-min Rain = 0
KAHS 211531Z 21010KT 32/20 A2982 RMK A01 T03160204  RH  051%=      5-min Rain = 0
KAHS 211532Z 20014KT 32/20 A2982 RMK A01 T03170204  RH  051%=      5-min Rain = 0
KAHS 211533Z 21014G19KT 32/20 A2982 RMK A01 T03170203  RH  051%=      5-min Rain = 0
KAHS 211534Z 21013KT 32/20 A2982 RMK A01 T03170202  RH  051%=      5-min Rain = 0
KAHS 211535Z 22009G14KT 32/20 A2982 RMK A01 T03180204  RH  051%=      5-min Rain = 0
KAHS 211536Z 22012KT 32/21 A2982 RMK A01 T03190206  RH  051%=      5-min Rain = 0
KAHS 211537Z 21009KT 32/21 A2982 RMK A01 T03200207  RH  051%=      5-min Rain = 0
KAHS 211538Z 21011G16KT 32/21 A2982 RMK A01 T03210206  RH  051%=      5-min Rain = 0
KAHS 211539Z 22015KT 32/20 A2981 RMK A01 T03200201  RH  049%=      5-min Rain = 0
KAHS 211540Z 21009KT 32/21 A2982 RMK A01 T03200205  RH  051%=      5-min Rain = 0
KAHS 211541Z 21013KT 32/21 A2981 RMK A01 T03220205  RH  050%=      5-min Rain = 0
KAHS 211542Z 20014KT 32/20 A2981 RMK A01 T03210200  RH  049%=      5-min Rain = 0
KAHS 211543Z 21014KT 32/20 A2981 RMK A01 T03210200  RH  049%=      5-min Rain = 0
KAHS 211544Z 21014KT 32/20 A2981 RMK A01 T03210201  RH  049%=      5-min Rain = 0
KAHS 211545Z 21015KT 32/20 A2981 RMK A01 T03220201  RH  049%=      5-min Rain = 0
KAHS 211546Z 22012KT 32/20 A2981 RMK A01 T03220200  RH  049%=      5-min Rain = 0
KAHS 211547Z 22011G16KT 32/20 A2981 RMK A01 T03220201  RH  049%=      5-min Rain = 0
KAHS 211548Z 22016KT 32/20 A2981 RMK A01 T03210199  RH  048%=      5-min Rain = 0
KAHS 211549Z 23014KT 32/20 A2981 RMK A01 T03210198  RH  048%=      5-min Rain = 0
KAHS 211550Z 23014KT 32/20 A2981 RMK A01 T03210200  RH  049%=      5-min Rain = 0
KAHS 211551Z 23013G19KT 32/20 A2981 RMK A01 T03220200  RH  049%=      5-min Rain = 0
KAHS 211552Z 21009KT 32/20 A2981 RMK A01 T03240204  RH  049%=      5-min Rain = 0
KAHS 211553Z 21009KT 33/21 A2981 RMK A01 T03260208  RH  050%=      5-min Rain = 0
KAHS 211554Z 20014KT 33/20 A2981 RMK A01 T03260204  RH  049%=      5-min Rain = 0
KAHS 211555Z 21013G18KT 33/20 A2981 RMK A01 T03250203  RH  049%=      5-min Rain = 0
KAHS 211556Z 23014KT 33/20 A2981 RMK A01 T03260202  RH  048%=      5-min Rain = 0
KAHS 211557Z 23010G15KT 33/20 A2981 RMK A01 T03250201  RH  048%=      5-min Rain = 0
KAHS 211558Z 21009KT 33/21 A2981 RMK A01 T03260205  RH  049%=      5-min Rain = 0
KAHS 211559Z 22009G14KT 33/21 A2981 RMK A01 T03270206  RH  049%=      5-min Rain = 0
KAHS 211600Z 21012G17KT 33/21 A2981 RMK A01 T03290207  RH  049%=      5-min Rain = 0
KAHS 211601Z 22012KT 33/21 A2981 RMK A01 T03290205  RH  048%=      5-min Rain = 0
KAHS 211602Z 22011G16KT 33/20 A2981 RMK A01 T03290203  RH  047%=      5-min Rain = 0
KAHS 211603Z 22013KT 33/20 A2981 RMK A01 T03310204  RH  047%=      5-min Rain = 0
KAHS 211604Z 22011G16KT 33/20 A2981 RMK A01 T03300200  RH  046%=      5-min Rain = 0
KAHS 211605Z 23013KT 33/20 A2981 RMK A01 T03300200  RH  047%=      5-min Rain = 0
KAHS 211606Z 23011KT 33/20 A2981 RMK A01 T03300202  RH  047%=      5-min Rain = 0
KAHS 211607Z 23008KT 33/20 A2981 RMK A01 T03310204  RH  047%=      5-min Rain = 0
KAHS 211608Z 22009KT 33/21 A2981 RMK A01 T03320205  RH  047%=      5-min Rain = 0
KAHS 211609Z 22015KT 33/20 A2981 RMK A01 T03330202  RH  046%=      5-min Rain = 0
KAHS 211610Z 22012G17KT 33/20 A2981 RMK A01 T03310199  RH  046%=      5-min Rain = 0
KAHS 211611Z 21009G14KT 33/20 A2981 RMK A01 T03320204  RH  047%=      5-min Rain = 0
KAHS 211612Z 21012KT 33/20 A2981 RMK A01 T03330200  RH  046%=      5-min Rain = 0
KAHS 211613Z 22009KT 33/20 A2981 RMK A01 T03340199  RH  045%=      5-min Rain = 0
KAHS 211614Z 22012G18KT 34/20 A2981 RMK A01 T03360203  RH  046%=      5-min Rain = 0
KAHS 211615Z 21016KT 33/19 A2981 RMK A01 T03340194  RH  043%=      5-min Rain = 0
KAHS 211616Z 21013KT 33/20 A2981 RMK A01 T03330195  RH  044%=      5-min Rain = 0
KAHS 211617Z 21014KT 33/20 A2981 RMK A01 T03340196  RH  044%=      5-min Rain = 0
KAHS 211618Z 20013KT 33/20 A2981 RMK A01 T03330196  RH  044%=      5-min Rain = 0
KAHS 211619Z 21012KT 33/20 A2981 RMK A01 T03330197  RH  045%=      5-min Rain = 0
KAHS 211620Z 22012G17KT 33/20 A2981 RMK A01 T03330199  RH  045%=      5-min Rain = 0
KAHS 211621Z 22013G20KT 34/20 A2981 RMK A01 T03350195  RH  044%=      5-min Rain = 0
KAHS 211622Z 22016KT 33/19 A2981 RMK A01 T03340190  RH  042%=      5-min Rain = 0
KAHS 211623Z 22015KT 33/19 A2981 RMK A01 T03340192  RH  043%=      5-min Rain = 0
KAHS 211624Z 23013G19KT 34/19 A2981 RMK A01 T03350193  RH  043%=      5-min Rain = 0
KAHS 211625Z 22010KT 34/20 A2981 RMK A01 T03360195  RH  044%=      5-min Rain = 0
KAHS 211626Z 23009KT 34/20 A2981 RMK A01 T03380195  RH  043%=      5-min Rain = 0
KAHS 211627Z 23010KT 34/20 A2981 RMK A01 T03380195  RH  043%=      5-min Rain = 0
KAHS 211628Z 22011KT 34/20 A2981 RMK A01 T03390197  RH  044%=      5-min Rain = 0
KAHS 211629Z 21012KT 34/20 A2981 RMK A01 T03400197  RH  043%=      5-min Rain = 0
KAHS 211630Z 22011KT 34/19 A2981 RMK A01 T03380194  RH  043%=      5-min Rain = 0
KAHS 211631Z 22011KT 34/20 A2981 RMK A01 T03380199  RH  044%=      5-min Rain = 0
KAHS 211632Z 23013KT 34/20 A2981 RMK A01 T03390195  RH  043%=      5-min Rain = 0
KAHS 211633Z 22012KT 34/19 A2981 RMK A01 T03390194  RH  043%=      5-min Rain = 0
KAHS 211634Z 22010G16KT 34/20 A2981 RMK A01 T03410198  RH  043%=      5-min Rain = 0
KAHS 211635Z 22014KT 34/19 A2981 RMK A01 T03410194  RH  042%=      5-min Rain = 0
KAHS 211636Z 23011G17KT 34/20 A2981 RMK A01 T03410195  RH  042%=      5-min Rain = 0
KAHS 211637Z 23011G16KT 34/19 A2981 RMK A01 T03410192  RH  042%=      5-min Rain = 0
KAHS 211638Z 22012KT 34/19 A2981 RMK A01 T03410193  RH  042%=      5-min Rain = 0
KAHS 211639Z 21013KT 34/19 A2981 RMK A01 T03400193  RH  042%=      5-min Rain = 0
KAHS 211640Z 21012KT 34/19 A2981 RMK A01 T03400192  RH  042%=      5-min Rain = 0
KAHS 211641Z 22010KT 34/19 A2981 RMK A01 T03400192  RH  042%=      5-min Rain = 0
KAHS 211642Z 20012KT 34/20 A2981 RMK A01 T03420195  RH  042%=      5-min Rain = 0
KAHS 211643Z 20015KT 34/19 A2981 RMK A01 T03420192  RH  041%=      5-min Rain = 0
KAHS 211644Z 21011KT 34/19 A2981 RMK A01 T03400190  RH  041%=      5-min Rain = 0
KAHS 211645Z 21013KT 34/19 A2981 RMK A01 T03410193  RH  042%=      5-min Rain = 0
KAHS 211646Z 22013KT 34/19 A2981 RMK A01 T03420191  RH  041%=      5-min Rain = 0
KAHS 211647Z 22013KT 34/19 A2981 RMK A01 T03420192  RH  041%=      5-min Rain = 0
KAHS 211648Z 22011KT 34/19 A2981 RMK A01 T03420194  RH  042%=      5-min Rain = 0
KAHS 211649Z 20013KT 34/19 A2981 RMK A01 T03430193  RH  041%=      5-min Rain = 0
KAHS 211650Z 20012KT 34/19 A2981 RMK A01 T03430192  RH  041%=      5-min Rain = 0
KAHS 211651Z 22012KT 35/20 A2981 RMK A01 T03450196  RH  042%=      5-min Rain = 0
KAHS 211652Z 22011KT 35/19 A2981 RMK A01 T03450192  RH  041%=      5-min Rain = 0
KAHS 211653Z 22009KT 35/20 A2981 RMK A01 T03460196  RH  042%=      5-min Rain = 0
KAHS 211654Z 20013KT 35/20 A2981 RMK A01 T03470195  RH  041%=      5-min Rain = 0
KAHS 211655Z 20011KT 34/19 A2981 RMK A01 T03440189  RH  040%=      5-min Rain = 0
KAHS 211656Z 21010KT 34/19 A2981 RMK A01 T03440194  RH  041%=      5-min Rain = 0
KAHS 211657Z 21009KT 35/20 A2981 RMK A01 T03450195  RH  041%=      5-min Rain = 0
KAHS 211658Z 21008KT 35/20 A2981 RMK A01 T03480199  RH  042%=      5-min Rain = 0
KAHS 211659Z 22009KT 35/20 A2981 RMK A01 T03500200  RH  042%=      5-min Rain = 0
KAHS 211700Z 23010KT 35/19 A2981 RMK A01 T03490194  RH  040%=      5-min Rain = 0
KAHS 211701Z 22013KT 35/19 A2981 RMK A01 T03490192  RH  040%=      5-min Rain = 0
KAHS 211702Z 22011KT 35/19 A2981 RMK A01 T03480192  RH  040%=      5-min Rain = 0
KAHS 211703Z 21010KT 35/19 A2981 RMK A01 T03480194  RH  040%=      5-min Rain = 0
KAHS 211704Z 22010KT 35/19 A2981 RMK A01 T03500192  RH  040%=      5-min Rain = 0
KAHS 211705Z 23008KT 35/19 A2981 RMK A01 T03510191  RH  039%=      5-min Rain = 0
KAHS 211706Z 23009KT 35/19 A2981 RMK A01 T03520191  RH  039%=      5-min Rain = 0
KAHS 211707Z 23008KT 35/19 A2981 RMK A01 T03520187  RH  038%=      5-min Rain = 0
KAHS 211708Z 21008KT 35/20 A2981 RMK A01 T03540195  RH  039%=      5-min Rain = 0
KAHS 211709Z 21012G17KT 35/19 A2981 RMK A01 T03540190  RH  038%=      5-min Rain = 0
KAHS 211710Z 19011KT 35/18 A2981 RMK A01 T03530184  RH  037%=      5-min Rain = 0
KAHS 211711Z 22014KT 35/18 A2981 RMK A01 T03520184  RH  037%=      5-min Rain = 0
KAHS 211712Z 22009G15KT 35/19 A2981 RMK A01 T03520186  RH  038%=      5-min Rain = 0
KAHS 211713Z 22010KT 35/19 A2981 RMK A01 T03540185  RH  037%=      5-min Rain = 0
KAHS 211714Z 20012KT 36/18 A2981 RMK A01 T03550182  RH  036%=      5-min Rain = 0
KAHS 211715Z 20012KT 35/18 A2981 RMK A01 T03530180  RH  036%=      5-min Rain = 0
KAHS 211716Z 21014KT 35/18 A2981 RMK A01 T03530180  RH  036%=      5-min Rain = 0
KAHS 211717Z 22012KT 35/18 A2981 RMK A01 T03520181  RH  036%=      5-min Rain = 0
KAHS 211718Z 21010KT 35/19 A2981 RMK A01 T03520185  RH  038%=      5-min Rain = 0
KAHS 211719Z 22012KT 35/19 A2981 RMK A01 T03520188  RH  038%=      5-min Rain = 0
KAHS 211720Z 23012KT 35/19 A2981 RMK A01 T03530189  RH  038%=      5-min Rain = 0
KAHS 211721Z 24009KT 35/19 A2981 RMK A01 T03540188  RH  038%=      5-min Rain = 0
KAHS 211722Z 25011KT 36/19 A2981 RMK A01 T03550185  RH  037%=      5-min Rain = 0
KAHS 211723Z 24010KT 36/18 A2981 RMK A01 T03550182  RH  036%=      5-min Rain = 0
KAHS 211724Z 22012KT 36/18 A2981 RMK A01 T03550182  RH  036%=      5-min Rain = 0
KAHS 211725Z 21010KT 35/18 A2981 RMK A01 T03540183  RH  036%=      5-min Rain = 0
KAHS 211726Z 21011KT 35/18 A2981 RMK A01 T03540184  RH  037%=      5-min Rain = 0
KAHS 211727Z 20013KT 36/18 A2981 RMK A01 T03550181  RH  036%=      5-min Rain = 0
KAHS 211728Z 20014KT 36/18 A298 RMK A01 T03550180  RH  036%=      5-min Rain = 0
KAHS 211729Z 21013KT 36/18 A298 RMK A01 T03550183  RH  036%=      5-min Rain = 0
KAHS 211730Z 21012KT 36/18 A298 RMK A01 T03560183  RH  036%=      5-min Rain = 0
KAHS 211731Z 21012KT 36/18 A298 RMK A01 T03550182  RH  036%=      5-min Rain = 0
KAHS 211732Z 20009KT 36/19 A298 RMK A01 T03560189  RH  037%=      5-min Rain = 0
KAHS 211733Z 20009KT 36/18 A298 RMK A01 T03560179  RH  035%=      5-min Rain = 0
KAHS 211734Z 20009KT 36/18 A298 RMK A01 T03560181  RH  036%=      5-min Rain = 0
KAHS 211735Z 20007KT 36/18 A298 RMK A01 T03550182  RH  036%=      5-min Rain = 0
KAHS 211736Z 19013G18KT 36/18 A298 RMK A01 T03580184  RH  036%=      5-min Rain = 0
KAHS 211737Z 21012KT 36/18 A298 RMK A01 T03590177  RH  034%=      5-min Rain = 0
KAHS 211738Z 22012KT 36/17 A298 RMK A01 T03590174  RH  034%=      5-min Rain = 0
KAHS 211739Z 22012KT 36/18 A298 RMK A01 T03590175  RH  034%=      5-min Rain = 0
KAHS 211740Z 23011KT 36/18 A298 RMK A01 T03590177  RH  034%=      5-min Rain = 0
KAHS 211741Z 22010KT 36/18 A298 RMK A01 T03600179  RH  034%=      5-min Rain = 0
KAHS 211742Z 21010KT 36/18 A298 RMK A01 T03590180  RH  035%=      5-min Rain = 0
KAHS 211743Z 22009KT 36/19 A298 RMK A01 T03600185  RH  036%=      5-min Rain = 0
KAHS 211744Z 22010KT 36/18 A298 RMK A01 T03620180  RH  034%=      5-min Rain = 0
KAHS 211745Z 21009KT 36/18 A298 RMK A01 T03610176  RH  034%=      5-min Rain = 0
KAHS 211746Z 21008KT 36/18 A298 RMK A01 T03600177  RH  034%=      5-min Rain = 0
KAHS 211747Z 22008KT 36/18 A298 RMK A01 T03600183  RH  035%=      5-min Rain = 0
KAHS 211748Z 23009KT 36/18 A298 RMK A01 T03610180  RH  035%=      5-min Rain = 0
KAHS 211749Z 22007KT 36/18 A298 RMK A01 T03610178  RH  034%=      5-min Rain = 0
KAHS 211750Z 23008KT 36/18 A298 RMK A01 T03630183  RH  035%=      5-min Rain = 0
KAHS 211751Z 23007G12KT 36/19 A298 RMK A01 T03640186  RH  035%=      5-min Rain = 0
KAHS 211752Z 22014G19KT 37/18 A298 RMK A01 T03650178  RH  033%=      5-min Rain = 0
KAHS 211753Z 22012KT 36/16 A298 RMK A01 T03630162  RH  031%=      5-min Rain = 0
KAHS 211754Z 21010KT 36/16 A298 RMK A01 T03620159  RH  030%=      5-min Rain = 0
KAHS 211755Z 22008KT 36/16 A298 RMK A01 T03610162  RH  031%=      5-min Rain = 0
KAHS 211756Z 21006KT 36/17 A298 RMK A01 T03630170  RH  032%=      5-min Rain = 0
KAHS 211757Z 20009KT 37/17 A2979 RMK A01 T03650172  RH  032%=      5-min Rain = 0
KAHS 211758Z 21008KT 37/17 A298 RMK A01 T03660171  RH  032%=      5-min Rain = 0
KAHS 211759Z 21012KT 37/16 A2979 RMK A01 T03660163  RH  030%=      5-min Rain = 0
KAHS 211800Z 21011KT 36/16 A2979 RMK A01 T03640157  RH  029%=      5-min Rain = 0
KAHS 211801Z 20009KT 37/17 A2979 RMK A01 T03650167  RH  031%=      5-min Rain = 0
KAHS 211802Z 21014KT 37/16 A2979 RMK A01 T03660161  RH  030%=      5-min Rain = 0
KAHS 211803Z 23011KT 36/16 A2979 RMK A01 T03640155  RH  029%=      5-min Rain = 0
KAHS 211804Z 22009KT 37/16 A2979 RMK A01 T03650159  RH  030%=      5-min Rain = 0
KAHS 211805Z 21008KT 37/16 A2979 RMK A01 T03650157  RH  029%=      5-min Rain = 0
KAHS 211806Z 21011KT 37/16 A2979 RMK A01 T03660163  RH  030%=      5-min Rain = 0
KAHS 211807Z 22009KT 37/16 A2979 RMK A01 T03680164  RH  030%=      5-min Rain = 0
KAHS 211808Z 21008KT 37/16 A2979 RMK A01 T03690161  RH  029%=      5-min Rain = 0
KAHS 211809Z 20007KT 37/16 A2979 RMK A01 T03690160  RH  029%=      5-min Rain = 0
KAHS 211810Z 22008KT 37/16 A2979 RMK A01 T03670164  RH  030%=      5-min Rain = 0
KAHS 211811Z 23012KT 37/17 A2979 RMK A01 T03700165  RH  030%=      5-min Rain = 0
KAHS 211812Z 22008KT 37/16 A2979 RMK A01 T03680156  RH  028%=      5-min Rain = 0
KAHS 211813Z 21007KT 37/16 A2979 RMK A01 T03670160  RH  029%=      5-min Rain = 0
KAHS 211814Z 20009KT 37/17 A2979 RMK A01 T03700168  RH  030%=      5-min Rain = 0
KAHS 211815Z 23010KT 37/16 A2979 RMK A01 T03710160  RH  029%=      5-min Rain = 0
KAHS 211816Z 21007KT 37/16 A2979 RMK A01 T03720157  RH  028%=      5-min Rain = 0
KAHS 211817Z 21011KT 37/15 A2979 RMK A01 T03710153  RH  028%=      5-min Rain = 0
KAHS 211818Z 21008KT 37/16 A2979 RMK A01 T03700158  RH  029%=      5-min Rain = 0
KAHS 211819Z 23008KT 37/17 A2979 RMK A01 T03720165  RH  029%=      5-min Rain = 0
KAHS 211820Z 21013KT 37/16 A2979 RMK A01 T03720160  RH  029%=      5-min Rain = 0
KAHS 211821Z 21011KT 37/14 A2979 RMK A01 T03710143  RH  026%=      5-min Rain = 0
KAHS 211822Z 23010KT 37/14 A2979 RMK A01 T03700141  RH  026%=      5-min Rain = 0
KAHS 211823Z 21012KT 37/15 A2979 RMK A01 T03690153  RH  028%=      5-min Rain = 0
KAHS 211824Z 21011KT 37/16 A2979 RMK A01 T03690159  RH  029%=      5-min Rain = 0
KAHS 211825Z 21013KT 37/16 A2979 RMK A01 T03690161  RH  029%=      5-min Rain = 0
KAHS 211826Z 21010KT 37/16 A2979 RMK A01 T03680162  RH  030%=      5-min Rain = 0
KAHS 211827Z 21009KT 37/17 A2979 RMK A01 T03700169  RH  031%=      5-min Rain = 0
KAHS 211828Z 20012KT 37/17 A2979 RMK A01 T03710165  RH  030%=      5-min Rain = 0
KAHS 211829Z 21009KT 37/16 A2979 RMK A01 T03700156  RH  028%=      5-min Rain = 0
KAHS 211830Z 20008KT 37/16 A2979 RMK A01 T03710162  RH  029%=      5-min Rain = 0
KAHS 211831Z 21010KT 37/16 A2979 RMK A01 T03720163  RH  029%=      5-min Rain = 0
KAHS 211832Z 22008KT 37/17 A2979 RMK A01 T03720167  RH  030%=      5-min Rain = 0
KAHS 211833Z 21010KT 37/17 A2979 RMK A01 T03720169  RH  030%=      5-min Rain = 0
KAHS 211834Z 21009KT 37/17 A2979 RMK A01 T03720170  RH  031%=      5-min Rain = 0
KAHS 211835Z 21006KT 37/17 A2979 RMK A01 T03710165  RH  030%=      5-min Rain = 0
KAHS 211836Z 23009KT 37/17 A2979 RMK A01 T03710167  RH  030%=      5-min Rain = 0
KAHS 211837Z 23011KT 37/16 A2979 RMK A01 T03720164  RH  029%=      5-min Rain = 0
KAHS 211838Z 23013KT 37/16 A2979 RMK A01 T03720162  RH  029%=      5-min Rain = 0
KAHS 211839Z 22013KT 37/16 A2979 RMK A01 T03710156  RH  028%=      5-min Rain = 0
KAHS 211840Z 21012KT 37/16 A2979 RMK A01 T03710160  RH  029%=      5-min Rain = 0
KAHS 211841Z 20010KT 37/16 A2979 RMK A01 T03720163  RH  029%=      5-min Rain = 0
KAHS 211842Z 22011KT 37/16 A2979 RMK A01 T03730163  RH  029%=      5-min Rain = 0
KAHS 211843Z 23009KT 37/16 A2979 RMK A01 T03730164  RH  029%=      5-min Rain = 0
KAHS 211844Z 21010KT 37/16 A2979 RMK A01 T03730163  RH  029%=      5-min Rain = 0
KAHS 211845Z 22009KT 37/16 A2979 RMK A01 T03710158  RH  028%=      5-min Rain = 0
KAHS 211846Z 22008KT 37/16 A2979 RMK A01 T03710159  RH  029%=      5-min Rain = 0
KAHS 211847Z 21005G11KT 37/17 A2979 RMK A01 T03720166  RH  030%=      5-min Rain = 0
KAHS 211848Z 19008KT 38/17 A2979 RMK A01 T03750168  RH  030%=      5-min Rain = 0
KAHS 211849Z 18008KT 37/16 A2979 RMK A01 T03740157  RH  028%=      5-min Rain = 0
KAHS 211850Z 19008KT 37/16 A2979 RMK A01 T03740161  RH  029%=      5-min Rain = 0
KAHS 211851Z 20008KT 37/17 A2978 RMK A01 T03740169  RH  030%=      5-min Rain = 0
KAHS 211852Z 20010KT 37/16 A2978 RMK A01 T03740164  RH  029%=      5-min Rain = 0
KAHS 211853Z 19009KT 37/16 A2978 RMK A01 T03730161  RH  029%=      5-min Rain = 0
KAHS 211854Z 19008KT 38/17 A2978 RMK A01 T03750170  RH  030%=      5-min Rain = 0
KAHS 211855Z 19012KT 38/17 A2978 RMK A01 T03760167  RH  029%=      5-min Rain = 0
KAHS 211856Z 19011KT 38/17 A2978 RMK A01 T03760167  RH  029%=      5-min Rain = 0
KAHS 211857Z 19010KT 38/16 A2978 RMK A01 T03750164  RH  029%=      5-min Rain = 0
KAHS 211858Z 20011KT 38/16 A2978 RMK A01 T03750159  RH  028%=      5-min Rain = 0
KAHS 211859Z 19012KT 37/16 A2978 RMK A01 T03740155  RH  027%=      5-min Rain = 0
KAHS 211900Z 19009KT 37/16 A2978 RMK A01 T03740161  RH  029%=      5-min Rain = 0
KAHS 211901Z 19008KT 38/17 A2978 RMK A01 T03770170  RH  030%=      5-min Rain = 0
KAHS 211902Z 19011KT 38/17 A2978 RMK A01 T03790166  RH  029%=      5-min Rain = 0
KAHS 211903Z 22011KT 38/17 A2978 RMK A01 T03800169  RH  029%=      5-min Rain = 0
KAHS 211904Z 21010KT 38/16 A2978 RMK A01 T03800164  RH  028%=      5-min Rain = 0
KAHS 211905Z 23011KT 38/16 A2978 RMK A01 T03780162  RH  028%=      5-min Rain = 0
KAHS 211906Z 20009G14KT 38/17 A2978 RMK A01 T03780165  RH  029%=      5-min Rain = 0
KAHS 211907Z 18012KT 38/16 A2978 RMK A01 T03790163  RH  028%=      5-min Rain = 0
KAHS 211908Z 17011KT 38/16 A2978 RMK A01 T03780158  RH  027%=      5-min Rain = 0
KAHS 211909Z 18011G16KT 38/16 A2978 RMK A01 T03780159  RH  027%=      5-min Rain = 0
KAHS 211910Z 18013KT 38/15 A2978 RMK A01 T03780153  RH  027%=      5-min Rain = 0
KAHS 211911Z 19013KT 38/15 A2978 RMK A01 T03770154  RH  027%=      5-min Rain = 0
KAHS 211912Z 19010KT 38/16 A2978 RMK A01 T03760156  RH  027%=      5-min Rain = 0
KAHS 211913Z 20011KT 38/16 A2978 RMK A01 T03760155  RH  027%=      5-min Rain = 0
KAHS 211914Z 20012KT 38/15 A2978 RMK A01 T03760151  RH  026%=      5-min Rain = 0
KAHS 211915Z 21011KT 38/16 A2978 RMK A01 T03770156  RH  027%=      5-min Rain = 0
KAHS 211916Z 23009KT 38/15 A2978 RMK A01 T03770152  RH  026%=      5-min Rain = 0
KAHS 211917Z 21010KT 38/16 A2977 RMK A01 T03790160  RH  028%=      5-min Rain = 0
KAHS 211918Z 20009G15KT 38/17 A2977 RMK A01 T03810165  RH  028%=      5-min Rain = 0
KAHS 211919Z 20012KT 38/17 A2978 RMK A01 T03830171  RH  029%=      5-min Rain = 0
KAHS 211920Z 22012KT 38/16 A2977 RMK A01 T03820164  RH  028%=      5-min Rain = 0
KAHS 211921Z 22011KT 38/16 A2977 RMK A01 T03810158  RH  027%=      5-min Rain = 0
KAHS 211922Z 20008KT 38/16 A2977 RMK A01 T03810162  RH  028%=      5-min Rain = 0
KAHS 211923Z 22009KT 38/16 A2977 RMK A01 T03820163  RH  028%=      5-min Rain = 0
KAHS 211924Z 20008KT 38/16 A2977 RMK A01 T03820159  RH  027%=      5-min Rain = 0
KAHS 211925Z 18011KT 38/16 A2977 RMK A01 T03830162  RH  027%=      5-min Rain = 0
KAHS 211926Z 19012KT 38/16 A2977 RMK A01 T03820155  RH  026%=      5-min Rain = 0
KAHS 211927Z 19012KT 38/15 A2977 RMK A01 T03820154  RH  026%=      5-min Rain = 0
KAHS 211928Z 19013KT 38/15 A2977 RMK A01 T03810151  RH  026%=      5-min Rain = 0
KAHS 211929Z 18012KT 38/15 A2977 RMK A01 T03790147  RH  025%=      5-min Rain = 0
KAHS 211930Z 19011KT 38/15 A2977 RMK A01 T03790151  RH  026%=      5-min Rain = 0
KAHS 211931Z 18009KT 38/15 A2977 RMK A01 T03790148  RH  026%=      5-min Rain = 0
KAHS 211932Z 19009G19KT 38/15 A2977 RMK A01 T03790153  RH  026%=      5-min Rain = 0
KAHS 211933Z 20017KT 38/16 A2977 RMK A01 T03810155  RH  026%=      5-min Rain = 0
KAHS 211934Z 22013KT 38/15 A2977 RMK A01 T03810151  RH  026%=      5-min Rain = 0
KAHS 211935Z 22013KT 38/14 A2977 RMK A01 T03810144  RH  025%=      5-min Rain = 0
KAHS 211936Z 22012KT 38/14 A2977 RMK A01 T03800140  RH  024%=      5-min Rain = 0
KAHS 211937Z 22012KT 38/14 A2977 RMK A01 T03790142  RH  025%=      5-min Rain = 0
KAHS 211938Z 21008G13KT 38/14 A2977 RMK A01 T03790144  RH  025%=      5-min Rain = 0
KAHS 211939Z 21011KT 38/15 A2977 RMK A01 T03800146  RH  025%=      5-min Rain = 0
KAHS 211940Z 20009KT 38/15 A2977 RMK A01 T03810151  RH  026%=      5-min Rain = 0
KAHS 211941Z 21010KT 38/15 A2977 RMK A01 T03820148  RH  025%=      5-min Rain = 0
KAHS 211942Z 21011KT 38/15 A2977 RMK A01 T03830151  RH  025%=      5-min Rain = 0
KAHS 211943Z 20012KT 38/14 A2976 RMK A01 T03820143  RH  024%=      5-min Rain = 0
KAHS 211944Z 20013KT 38/15 A2976 RMK A01 T03830147  RH  025%=      5-min Rain = 0
KAHS 211945Z 22010KT 38/15 A2976 RMK A01 T03830145  RH  025%=      5-min Rain = 0
KAHS 211946Z 22010KT 38/15 A2976 RMK A01 T03840146  RH  025%=      5-min Rain = 0
KAHS 211947Z 21011KT 38/14 A2976 RMK A01 T03830138  RH  023%=      5-min Rain = 0
KAHS 211948Z 20010KT 38/14 A2976 RMK A01 T03810144  RH  024%=      5-min Rain = 0
KAHS 211949Z 20011G16KT 38/16 A2976 RMK A01 T03830157  RH  026%=      5-min Rain = 0
KAHS 211950Z 20011KT 38/18 A2976 RMK A01 T03820176  RH  030%=      5-min Rain = 0
KAHS 211951Z 17012KT 38/18 A2976 RMK A01 T03830181  RH  031%=      5-min Rain = 0
KAHS 211952Z 18012KT 38/18 A2976 RMK A01 T03840177  RH  030%=      5-min Rain = 0
KAHS 211953Z 18012KT 38/17 A2976 RMK A01 T03840166  RH  028%=      5-min Rain = 0
KAHS 211954Z 20010KT 38/17 A2976 RMK A01 T03820171  RH  029%=      5-min Rain = 0
KAHS 211955Z 18009KT 38/17 A2976 RMK A01 T03830168  RH  028%=      5-min Rain = 0
KAHS 211956Z 18008KT 38/17 A2976 RMK A01 T03830168  RH  028%=      5-min Rain = 0
KAHS 211957Z 18010KT 38/17 A2976 RMK A01 T03830167  RH  028%=      5-min Rain = 0
KAHS 211958Z 18012KT 38/15 A2976 RMK A01 T03840154  RH  026%=      5-min Rain = 0
KAHS 211959Z 21011G16KT 39/16 A2976 RMK A01 T03850158  RH  026%=      5-min Rain = 0
KAHS 212000Z 21013KT 38/17 A2976 RMK A01 T03840173  RH  029%=      5-min Rain = 0
KAHS 212001Z 19010KT 38/18 A2976 RMK A01 T03830183  RH  031%=      5-min Rain = 0
KAHS 212002Z 19013KT 38/19 A2976 RMK A01 T03830188  RH  032%=      5-min Rain = 0
KAHS 212003Z 18012KT 38/19 A2976 RMK A01 T03810188  RH  032%=      5-min Rain = 0
KAHS 212004Z 19012KT 38/19 A2976 RMK A01 T03820187  RH  032%=      5-min Rain = 0
KAHS 212005Z 19012KT 38/18 A2976 RMK A01 T03820181  RH  031%=      5-min Rain = 0
KAHS 212006Z 20012KT 38/19 A2976 RMK A01 T03820185  RH  032%=      5-min Rain = 0
KAHS 212007Z 20013KT 38/18 A2976 RMK A01 T03830176  RH  030%=      5-min Rain = 0
KAHS 212008Z 19008KT 38/15 A2976 RMK A01 T03830153  RH  026%=      5-min Rain = 0
KAHS 212009Z 18010G15KT 38/17 A2976 RMK A01 T03840169  RH  028%=      5-min Rain = 0
KAHS 212010Z 17012KT 39/16 A2976 RMK A01 T03860158  RH  026%=      5-min Rain = 0
KAHS 212011Z 20011KT 39/15 A2976 RMK A01 T03870152  RH  025%=      5-min Rain = 0
KAHS 212012Z 20008KT 39/15 A2976 RMK A01 T03880150  RH  025%=      5-min Rain = 0
KAHS 212013Z 20010KT 39/14 A2976 RMK A01 T03880143  RH  024%=      5-min Rain = 0
KAHS 212014Z 19010KT 39/15 A2976 RMK A01 T03880149  RH  024%=      5-min Rain = 0
KAHS 212015Z 19009KT 39/17 A2976 RMK A01 T03880169  RH  028%=      5-min Rain = 0
KAHS 212016Z 20012KT 39/18 A2976 RMK A01 T03880177  RH  029%=      5-min Rain = 0
KAHS 212017Z 18014KT 38/18 A2975 RMK A01 T03840176  RH  030%=      5-min Rain = 0
KAHS 212018Z 16014KT 38/18 A2975 RMK A01 T03820176  RH  030%=      5-min Rain = 0
KAHS 212019Z 17011KT 38/18 A2975 RMK A01 T03830177  RH  030%=      5-min Rain = 0
KAHS 212020Z 17012KT 39/18 A2975 RMK A01 T03850177  RH  030%=      5-min Rain = 0
KAHS 212021Z 18012KT 39/18 A2975 RMK A01 T03850176  RH  030%=      5-min Rain = 0
KAHS 212022Z 18013KT 38/17 A2975 RMK A01 T03840174  RH  029%=      5-min Rain = 0
KAHS 212023Z 19013KT 38/18 A2975 RMK A01 T03840176  RH  030%=      5-min Rain = 0
KAHS 212024Z 18013KT 38/17 A2975 RMK A01 T03830174  RH  030%=      5-min Rain = 0
KAHS 212025Z 18012KT 38/18 A2975 RMK A01 T03840177  RH  030%=      5-min Rain = 0
KAHS 212026Z 18013KT 38/18 A2975 RMK A01 T03840176  RH  030%=      5-min Rain = 0
KAHS 212027Z 20014KT 38/18 A2975 RMK A01 T03820175  RH  030%=      5-min Rain = 0
KAHS 212028Z 19014KT 38/18 A2975 RMK A01 T03810179  RH  031%=      5-min Rain = 0
KAHS 212029Z 18011KT 38/18 A2976 RMK A01 T03790177  RH  031%=      5-min Rain = 0
KAHS 212030Z 19009KT 38/18 A2975 RMK A01 T03800177  RH  031%=      5-min Rain = 0
KAHS 212031Z 19007KT 38/18 A2975 RMK A01 T03810182  RH  031%=      5-min Rain = 0
KAHS 212032Z 19005KT 38/18 A2975 RMK A01 T03820181  RH  031%=      5-min Rain = 0
KAHS 212033Z 19008KT 38/18 A2975 RMK A01 T03830183  RH  031%=      5-min Rain = 0
KAHS 212034Z 18007KT 39/19 A2975 RMK A01 T03850186  RH  032%=      5-min Rain = 0
KAHS 212035Z 16010KT 39/19 A2975 RMK A01 T03880188  RH  031%=      5-min Rain = 0
KAHS 212036Z 16011KT 39/17 A2975 RMK A01 T03870173  RH  029%=      5-min Rain = 0
KAHS 212037Z 18010KT 39/18 A2975 RMK A01 T03870178  RH  029%=      5-min Rain = 0
KAHS 212038Z 16008KT 39/18 A2975 RMK A01 T03880178  RH  029%=      5-min Rain = 0
KAHS 212039Z 17009KT 39/18 A2975 RMK A01 T03890177  RH  029%=      5-min Rain = 0
KAHS 212040Z 19011KT 39/18 A2975 RMK A01 T03900179  RH  029%=      5-min Rain = 0
KAHS 212041Z 18014KT 39/16 A2975 RMK A01 T03890161  RH  026%=      5-min Rain = 0
KAHS 212042Z 19011KT 39/16 A2975 RMK A01 T03880156  RH  026%=      5-min Rain = 0
KAHS 212043Z 19011KT 38/16 A2975 RMK A01 T03840159  RH  027%=      5-min Rain = 0
KAHS 212044Z 18010KT 38/16 A2975 RMK A01 T03810163  RH  028%=      5-min Rain = 0
KAHS 212045Z 18010G18KT 38/17 A2975 RMK A01 T03810168  RH  029%=      5-min Rain = 0
KAHS 212046Z 18015KT 38/17 A2974 RMK A01 T03840165  RH  028%=      5-min Rain = 0
KAHS 212047Z 17016KT 39/16 A2974 RMK A01 T03860161  RH  027%=      5-min Rain = 0
KAHS 212048Z 17016KT 39/17 A2974 RMK A01 T03860165  RH  027%=      5-min Rain = 0
KAHS 212049Z 17015KT 39/16 A2974 RMK A01 T03860163  RH  027%=      5-min Rain = 0
KAHS 212050Z 18012KT 38/16 A2974 RMK A01 T03830163  RH  028%=      5-min Rain = 0
KAHS 212051Z 18012KT 38/16 A2974 RMK A01 T03790164  RH  028%=      5-min Rain = 0
KAHS 212052Z 18007KT 38/17 A2974 RMK A01 T03780167  RH  029%=      5-min Rain = 0
KAHS 212053Z 19009KT 38/17 A2974 RMK A01 T03800172  RH  030%=      5-min Rain = 0
KAHS 212054Z 18007KT 38/18 A2974 RMK A01 T03830175  RH  030%=      5-min Rain = 0
KAHS 212055Z 18009KT 39/18 A2974 RMK A01 T03850176  RH  030%=      5-min Rain = 0
KAHS 212056Z 18012KT 39/18 A2974 RMK A01 T03880177  RH  029%=      5-min Rain = 0
KAHS 212057Z 18014KT 39/17 A2974 RMK A01 T03890173  RH  028%=      5-min Rain = 0
KAHS 212058Z 19017KT 39/17 A2974 RMK A01 T03870166  RH  027%=      5-min Rain = 0
KAHS 212059Z 17013KT 39/17 A2974 RMK A01 T03860165  RH  028%=      5-min Rain = 0
KAHS 212100Z 18013G20KT 39/17 A2974 RMK A01 T03870170  RH  028%=      5-min Rain = 0
KAHS 212101Z 18014KT 39/17 A2974 RMK A01 T03870167  RH  027%=      5-min Rain = 0
KAHS 212102Z 19012KT 39/17 A2974 RMK A01 T03860165  RH  027%=      5-min Rain = 0
KAHS 212103Z 19012KT 39/17 A2974 RMK A01 T03860166  RH  028%=      5-min Rain = 0
KAHS 212104Z 21013KT 39/16 A2974 RMK A01 T03860162  RH  027%=      5-min Rain = 0
KAHS 212105Z 20011KT 39/17 A2974 RMK A01 T03870168  RH  028%=      5-min Rain = 0
KAHS 212106Z 18011KT 39/17 A2974 RMK A01 T03890172  RH  028%=      5-min Rain = 0
KAHS 212107Z 19012KT 39/17 A2974 RMK A01 T03900171  RH  028%=      5-min Rain = 0
KAHS 212108Z 18011KT 39/17 A2974 RMK A01 T03890168  RH  028%=      5-min Rain = 0
KAHS 212109Z 18009KT 39/18 A2974 RMK A01 T03900175  RH  029%=      5-min Rain = 0
KAHS 212110Z 18011KT 39/17 A2974 RMK A01 T03920174  RH  028%=      5-min Rain = 0
KAHS 212111Z 17011KT 39/17 A2974 RMK A01 T03920170  RH  027%=      5-min Rain = 0
KAHS 212112Z 18011KT 39/16 A2974 RMK A01 T03920163  RH  026%=      5-min Rain = 0
KAHS 212113Z 18010KT 39/16 A2974 RMK A01 T03920164  RH  026%=      5-min Rain = 0
KAHS 212114Z 18012G18KT 39/17 A2974 RMK A01 T03920166  RH  027%=      5-min Rain = 0
KAHS 212115Z 17014KT 39/16 A2974 RMK A01 T03920161  RH  026%=      5-min Rain = 0
KAHS 212116Z 17012KT 39/16 A2974 RMK A01 T03910164  RH  026%=      5-min Rain = 0
KAHS 212117Z 17013KT 39/17 A2974 RMK A01 T03910165  RH  027%=      5-min Rain = 0
KAHS 212118Z 17014KT 39/16 A2974 RMK A01 T03920162  RH  026%=      5-min Rain = 0
KAHS 212119Z 18014KT 39/16 A2974 RMK A01 T03900162  RH  026%=      5-min Rain = 0
KAHS 212120Z 17011KT 39/16 A2974 RMK A01 T03880163  RH  027%=      5-min Rain = 0
KAHS 212121Z 16015G20KT 39/16 A2973 RMK A01 T03890163  RH  027%=      5-min Rain = 0
KAHS 212122Z 15015KT 39/16 A2973 RMK A01 T03880157  RH  026%=      5-min Rain = 0
KAHS 212123Z 16014G19KT 39/16 A2973 RMK A01 T03890160  RH  026%=      5-min Rain = 0
KAHS 212124Z 17015KT 39/16 A2973 RMK A01 T03900159  RH  026%=      5-min Rain = 0
KAHS 212125Z 17013KT 39/16 A2973 RMK A01 T03920158  RH  025%=      5-min Rain = 0
KAHS 212126Z 17015KT 39/15 A2973 RMK A01 T03930153  RH  024%=      5-min Rain = 0
KAHS 212127Z 17016KT 39/15 A2973 RMK A01 T03920146  RH  024%=      5-min Rain = 0
KAHS 212128Z 18013KT 39/15 A2973 RMK A01 T03910152  RH  025%=      5-min Rain = 0
KAHS 212129Z 18014KT 39/15 A2973 RMK A01 T03910153  RH  025%=      5-min Rain = 0
KAHS 212130Z 18017KT 39/16 A2973 RMK A01 T03900156  RH  025%=      5-min Rain = 0
KAHS 212131Z 17015KT 39/15 A2973 RMK A01 T03890151  RH  025%=      5-min Rain = 0
KAHS 212132Z 18013KT 39/15 A2973 RMK A01 T03890149  RH  024%=      5-min Rain = 0
KAHS 212133Z 18011KT 39/15 A2973 RMK A01 T03870151  RH  025%=      5-min Rain = 0
KAHS 212134Z 16009KT 39/16 A2973 RMK A01 T03880163  RH  027%=      5-min Rain = 0
KAHS 212135Z 16010KT 39/16 A2973 RMK A01 T03880164  RH  027%=      5-min Rain = 0
KAHS 212136Z 15011KT 39/16 A2973 RMK A01 T03850159  RH  027%=      5-min Rain = 0
KAHS 212137Z 17011KT 38/16 A2973 RMK A01 T03820158  RH  027%=      5-min Rain = 0
KAHS 212138Z 18013G18KT 38/16 A2973 RMK A01 T03820156  RH  026%=      5-min Rain = 0
KAHS 212139Z 17015KT 39/15 A2973 RMK A01 T03850153  RH  025%=      5-min Rain = 0
KAHS 212140Z 16015G20KT 39/15 A2973 RMK A01 T03880151  RH  025%=      5-min Rain = 0
KAHS 212141Z 17016KT 39/15 A2973 RMK A01 T03900145  RH  024%=      5-min Rain = 0
KAHS 212142Z 18016KT 39/14 A2973 RMK A01 T03910138  RH  022%=      5-min Rain = 0
KAHS 212143Z 19015KT 39/14 A2973 RMK A01 T03900141  RH  023%=      5-min Rain = 0
KAHS 212144Z 18011KT 39/15 A2973 RMK A01 T03890146  RH  024%=      5-min Rain = 0
KAHS 212145Z 17013KT 39/15 A2973 RMK A01 T03900148  RH  024%=      5-min Rain = 0
KAHS 212146Z 16016G24KT 39/15 A2973 RMK A01 T03900147  RH  024%=      5-min Rain = 0
KAHS 212147Z 16018G23KT 39/14 A2973 RMK A01 T03890140  RH  023%=      5-min Rain = 0
KAHS 212148Z 18013KT 39/15 A2973 RMK A01 T03880145  RH  024%=      5-min Rain = 0
KAHS 212149Z 18012KT 39/15 A2973 RMK A01 T03890148  RH  024%=      5-min Rain = 0
KAHS 212150Z 18012KT 39/14 A2973 RMK A01 T03890144  RH  023%=      5-min Rain = 0
KAHS 212151Z 18010KT 39/15 A2973 RMK A01 T03890150  RH  024%=      5-min Rain = 0
KAHS 212152Z 18012KT 39/14 A2973 RMK A01 T03890144  RH  024%=      5-min Rain = 0
KAHS 212153Z 17010KT 39/15 A2973 RMK A01 T03880153  RH  025%=      5-min Rain = 0
KAHS 212154Z 17012KT 39/15 A2973 RMK A01 T03890152  RH  025%=      5-min Rain = 0
KAHS 212155Z 17011KT 39/15 A2973 RMK A01 T03890151  RH  025%=      5-min Rain = 0
KAHS 212156Z 17010KT 39/16 A2973 RMK A01 T03890155  RH  025%=      5-min Rain = 0
KAHS 212157Z 17011G20KT 39/16 A2972 RMK A01 T03900155  RH  025%=      5-min Rain = 0
KAHS 212158Z 17016KT 39/15 A2972 RMK A01 T03890146  RH  024%=      5-min Rain = 0
KAHS 212159Z 17018KT 39/16 A2972 RMK A01 T03880157  RH  026%=      5-min Rain = 0
KAHS 212200Z 16015G21KT 38/17 A2972 RMK A01 T03840173  RH  029%=      5-min Rain = 0
KAHS 212201Z 16012KT 38/18 A2972 RMK A01 T03820179  RH  031%=      5-min Rain = 0
KAHS 212202Z 16013G18KT 38/18 A2972 RMK A01 T03830183  RH  031%=      5-min Rain = 0
KAHS 212203Z 15015KT 38/18 A2972 RMK A01 T03840182  RH  031%=      5-min Rain = 0
KAHS 212204Z 17014KT 38/18 A2972 RMK A01 T03830183  RH  031%=      5-min Rain = 0
KAHS 212205Z 17014KT 38/18 A2972 RMK A01 T03830178  RH  030%=      5-min Rain = 0
KAHS 212206Z 16013G18KT 38/18 A2972 RMK A01 T03830181  RH  031%=      5-min Rain = 0
KAHS 212207Z 15014KT 38/18 A2972 RMK A01 T03830184  RH  031%=      5-min Rain = 0
KAHS 212208Z 15015G20KT 38/18 A2972 RMK A01 T03830181  RH  031%=      5-min Rain = 0
KAHS 212209Z 15012KT 38/19 A2972 RMK A01 T03820186  RH  032%=      5-min Rain = 0
KAHS 212210Z 15013G19KT 38/19 A2972 RMK A01 T03820187  RH  032%=      5-min Rain = 0
KAHS 212211Z 15018G24KT 38/18 A2972 RMK A01 T03810184  RH  032%=      5-min Rain = 0
KAHS 212212Z 16014KT 38/18 A2972 RMK A01 T03800183  RH  032%=      5-min Rain = 0
KAHS 212213Z 15016KT 38/18 A2972 RMK A01 T03800183  RH  032%=      5-min Rain = 0
KAHS 212214Z 16017KT 38/18 A2972 RMK A01 T03800180  RH  031%=      5-min Rain = 0
KAHS 212215Z 16015KT 38/18 A2972 RMK A01 T03790177  RH  031%=      5-min Rain = 0
KAHS 212216Z 16014G19KT 38/18 A2972 RMK A01 T03780178  RH  031%=      5-min Rain = 0
KAHS 212217Z 15013G19KT 38/18 A2972 RMK A01 T03770175  RH  031%=      5-min Rain = 0
KAHS 212218Z 16013KT 38/18 A2972 RMK A01 T03770175  RH  031%=      5-min Rain = 0
KAHS 212219Z 15013KT 38/18 A2972 RMK A01 T03790179  RH  031%=      5-min Rain = 0
KAHS 212220Z 15013G18KT 38/18 A2972 RMK A01 T03800176  RH  030%=      5-min Rain = 0
KAHS 212221Z 16013KT 38/18 A2972 RMK A01 T03800179  RH  031%=      5-min Rain = 0
KAHS 212222Z 15011G17KT 38/18 A2972 RMK A01 T03810181  RH  031%=      5-min Rain = 0
KAHS 212223Z 16015KT 38/18 A2972 RMK A01 T03800180  RH  031%=      5-min Rain = 0
KAHS 212224Z 16016KT 38/18 A2972 RMK A01 T03790181  RH  031%=      5-min Rain = 0
KAHS 212225Z 15015G20KT 38/18 A2972 RMK A01 T03780181  RH  032%=      5-min Rain = 0
KAHS 212226Z 15013KT 38/19 A2972 RMK A01 T03780186  RH  033%=      5-min Rain = 0
KAHS 212227Z 15009KT 38/19 A2972 RMK A01 T03790192  RH  034%=      5-min Rain = 0
KAHS 212228Z 15012KT 38/19 A2972 RMK A01 T03790192  RH  034%=      5-min Rain = 0
KAHS 212229Z 16013KT 38/19 A2972 RMK A01 T03800193  RH  034%=      5-min Rain = 0
KAHS 212230Z 16014KT 38/19 A2972 RMK A01 T03790190  RH  033%=      5-min Rain = 0
KAHS 212231Z 15016G22KT 38/19 A2972 RMK A01 T03780190  RH  034%=      5-min Rain = 0
KAHS 212232Z 16014G19KT 38/19 A2972 RMK A01 T03760189  RH  034%=      5-min Rain = 0
KAHS 212233Z 15012KT 38/19 A2972 RMK A01 T03750189  RH  034%=      5-min Rain = 0
KAHS 212234Z 15014KT 37/19 A2972 RMK A01 T03730191  RH  035%=      5-min Rain = 0
KAHS 212235Z 15013KT 37/19 A2972 RMK A01 T03730191  RH  035%=      5-min Rain = 0
KAHS 212236Z 16015G20KT 37/20 A2972 RMK A01 T03740195  RH  035%=      5-min Rain = 0
KAHS 212237Z 15017G22KT 37/19 A2972 RMK A01 T03740191  RH  034%=      5-min Rain = 0
KAHS 212238Z 15015G21KT 37/19 A2972 RMK A01 T03730191  RH  035%=      5-min Rain = 0
KAHS 212239Z 15020KT 37/19 A2972 RMK A01 T03730187  RH  034%=      5-min Rain = 0
KAHS 212240Z 15017G22KT 37/19 A2972 RMK A01 T03730185  RH  033%=      5-min Rain = 0
KAHS 212241Z 16017G22KT 37/19 A2972 RMK A01 T03720186  RH  034%=      5-min Rain = 0
KAHS 212242Z 15013KT 37/19 A2972 RMK A01 T03730188  RH  034%=      5-min Rain = 0
KAHS 212243Z 15015G20KT 37/19 A2971 RMK A01 T03740188  RH  034%=      5-min Rain = 0
KAHS 212244Z 16016KT 37/19 A2971 RMK A01 T03730186  RH  033%=      5-min Rain = 0
KAHS 212245Z 14015G21KT 37/19 A2971 RMK A01 T03720187  RH  034%=      5-min Rain = 0
KAHS 212246Z 14016G21KT 37/19 A2971 RMK A01 T03700187  RH  034%=      5-min Rain = 0
KAHS 212247Z 14017G22KT 37/18 A2971 RMK A01 T03690183  RH  034%=      5-min Rain = 0
KAHS 212248Z 15014G20KT 37/19 A2971 RMK A01 T03690187  RH  034%=      5-min Rain = 0
KAHS 212249Z 15018G23KT 37/18 A2971 RMK A01 T03690183  RH  034%=      5-min Rain = 0
KAHS 212250Z 15017G24KT 37/18 A2972 RMK A01 T03670180  RH  033%=      5-min Rain = 0
KAHS 212251Z 14014KT 37/18 A2972 RMK A01 T03650178  RH  033%=      5-min Rain = 0
KAHS 212252Z 14016G21KT 37/17 A2972 RMK A01 T03650173  RH  032%=      5-min Rain = 0
KAHS 212253Z 14018KT 36/17 A2972 RMK A01 T03630171  RH  032%=      5-min Rain = 0
KAHS 212254Z 15016G22KT 36/18 A2972 RMK A01 T03630177  RH  033%=      5-min Rain = 0
KAHS 212255Z 15016G21KT 36/18 A2972 RMK A01 T03610175  RH  034%=      5-min Rain = 0
KAHS 212256Z 15014G20KT 36/18 A2972 RMK A01 T03580179  RH  035%=      5-min Rain = 0
KAHS 212257Z 15018G25KT 36/18 A2972 RMK A01 T03580177  RH  034%=      5-min Rain = 0
KAHS 212258Z 15018G23KT 36/18 A2972 RMK A01 T03570175  RH  034%=      5-min Rain = 0
KAHS 212259Z 15016G22KT 36/18 A2972 RMK A01 T03570178  RH  035%=      5-min Rain = 0
KAHS 212300Z 15019G24KT 36/18 A2972 RMK A01 T03560177  RH  035%=      5-min Rain = 0
KAHS 212301Z 15019G25KT 35/17 A2972 RMK A01 T03530173  RH  035%=      5-min Rain = 0
KAHS 212302Z 15019G26KT 35/17 A2972 RMK A01 T03510174  RH  035%=      5-min Rain = 0
KAHS 212303Z 15019G24KT 35/17 A2972 RMK A01 T03480171  RH  035%=      5-min Rain = 0
KAHS 212304Z 16020G25KT 34/16 A2973 RMK A01 T03440163  RH  034%=      5-min Rain = 0
KAHS 212305Z 15021G26KT 34/16 A2972 RMK A01 T03390157  RH  034%=      5-min Rain = 0
KAHS 212306Z 14019KT 34/16 A2972 RMK A01 T03350158  RH  034%=      5-min Rain = 0
KAHS 212307Z 14017G25KT 33/16 A2972 RMK A01 T03300161  RH  036%=      5-min Rain = 0
KAHS 212308Z 14014KT 33/16 A2972 RMK A01 T03260163  RH  038%=      5-min Rain = 0
KAHS 212309Z 14015G23KT 32/16 A2973 RMK A01 T03230161  RH  038%=      5-min Rain = 0
KAHS 212310Z 13014KT 32/16 A2972 RMK A01 T03230159  RH  037%=      5-min Rain = 0
KAHS 212311Z 14014KT 32/16 A2972 RMK A01 T03220160  RH  038%=      5-min Rain = 0
KAHS 212312Z 13014KT 32/16 A2972 RMK A01 T03210163  RH  039%=      5-min Rain = 0
KAHS 212313Z 15013KT 32/17 A2972 RMK A01 T03180165  RH  040%=      5-min Rain = 0
KAHS 212314Z 14017G26KT 32/17 A2972 RMK A01 T03170170  RH  041%=      5-min Rain = 0
KAHS 212315Z 15019KT 32/17 A2972 RMK A01 T03150173  RH  043%=      5-min Rain = 0
KAHS 212316Z 15016KT 32/18 A2972 RMK A01 T03150178  RH  044%=      5-min Rain = 0
KAHS 212317Z 14019G24KT 32/18 A2972 RMK A01 T03150184  RH  046%=      5-min Rain = 0
KAHS 212318Z 14020G25KT 32/19 A2972 RMK A01 T03160188  RH  046%=      5-min Rain = 0
KAHS 212319Z 15017G25KT 32/19 A2972 RMK A01 T03200187  RH  045%=      5-min Rain = 0
KAHS 212320Z 14018G24KT 32/18 A2972 RMK A01 T03220182  RH  043%=      5-min Rain = 0
KAHS 212321Z 14017G23KT 32/18 A2972 RMK A01 T03230182  RH  043%=      5-min Rain = 0
KAHS 212322Z 14019G29KT 33/19 A2972 RMK A01 T03260185  RH  043%=      5-min Rain = 0
KAHS 212323Z 14022G29KT 33/19 A2972 RMK A01 T03260189  RH  044%=      5-min Rain = 0
KAHS 212324Z 13019KT 33/19 A2972 RMK A01 T03250191  RH  045%=      5-min Rain = 0
KAHS 212325Z 13017KT 32/19 A2972 RMK A01 T03230187  RH  045%=      5-min Rain = 0
KAHS 212326Z 13019KT 32/18 A2972 RMK A01 T03210181  RH  043%=      5-min Rain = 0
KAHS 212327Z 12019G26KT 32/18 A2972 RMK A01 T03180177  RH  043%=      5-min Rain = 0
KAHS 212328Z 13016G21KT 32/18 A2972 RMK A01 T03150177  RH  044%=      5-min Rain = 0
KAHS 212329Z 13017KT 31/18 A2972 RMK A01 T03130178  RH  045%=      5-min Rain = 0
KAHS 212330Z 12016KT 31/18 A2972 RMK A01 T03110180  RH  046%=      5-min Rain = 0
KAHS 212331Z 13015KT 31/18 A2971 RMK A01 T03100182  RH  047%=      5-min Rain = 0
KAHS 212332Z 13015KT 31/19 A2972 RMK A01 T03090185  RH  048%=      5-min Rain = 0
KAHS 212333Z 13017G22KT 31/19 A2972 RMK A01 T03090187  RH  048%=      5-min Rain = 0
KAHS 212334Z 12014KT 31/19 A2972 RMK A01 T03090189  RH  049%=      5-min Rain = 0
KAHS 212335Z 12016G21KT 31/19 A2972 RMK A01 T03060190  RH  050%=      5-min Rain = 0
KAHS 212336Z 12014KT 30/19 A2972 RMK A01 T03040193  RH  051%=      5-min Rain = 0
KAHS 212337Z 12017KT 30/20 A2972 RMK A01 T03030196  RH  053%=      5-min Rain = 0
KAHS 212338Z 13014G20KT 30/20 A2972 RMK A01 T03020199  RH  054%=      5-min Rain = 0
KAHS 212339Z 13013KT 30/20 A2972 RMK A01 T03030201  RH  054%=      5-min Rain = 0
KAHS 212340Z 13011KT 30/20 A2972 RMK A01 T03020202  RH  055%=      5-min Rain = 0
KAHS 212341Z 12015KT 30/20 A2972 RMK A01 T03010203  RH  056%=      5-min Rain = 0
KAHS 212342Z 13015KT 30/20 A2972 RMK A01 T02990202  RH  056%=      5-min Rain = 0
KAHS 212343Z 12017G22KT 30/20 A2973 RMK A01 T03010203  RH  056%=      5-min Rain = 0
KAHS 212344Z 13016G21KT 30/20 A2972 RMK A01 T03000203  RH  056%=      5-min Rain = 0
KAHS 212345Z 13018G24KT 30/20 A2972 RMK A01 T02990204  RH  057%=      5-min Rain = 0
KAHS 212346Z 13018KT 30/20 A2972 RMK A01 T02980203  RH  057%=      5-min Rain = 0
KAHS 212347Z 13015G20KT 30/20 A2972 RMK A01 T02980203  RH  057%=      5-min Rain = 0
KAHS 212348Z 13015G20KT 30/20 A2972 RMK A01 T03000203  RH  056%=      5-min Rain = 0
KAHS 212349Z 13014G19KT 30/20 A2972 RMK A01 T03000203  RH  056%=      5-min Rain = 0
KAHS 212350Z 13016KT 30/20 A2972 RMK A01 T03000203  RH  056%=      5-min Rain = 0
KAHS 212351Z 14013KT 30/20 A2972 RMK A01 T03000203  RH  056%=      5-min Rain = 0
KAHS 212352Z 14012KT 30/20 A2972 RMK A01 T02990203  RH  056%=      5-min Rain = 0
KAHS 212353Z 13011G17KT 30/21 A2972 RMK A01 T02980205  RH  057%=      5-min Rain = 0
KAHS 212354Z 12013KT 30/21 A2972 RMK A01 T02970207  RH  058%=      5-min Rain = 0
KAHS 212355Z 11018KT 30/20 A2972 RMK A01 T02960203  RH  057%=      5-min Rain = 0
KAHS 212356Z 12017G23KT 30/20 A2972 RMK A01 T02950199  RH  056%=      5-min Rain = 0
KAHS 212357Z 12016G24KT 29/20 A2972 RMK A01 T02930201  RH  057%=      5-min Rain = 0
KAHS 212358Z 12014G19KT 29/20 A2972 RMK A01 T02910199  RH  058%=      5-min Rain = 0
KAHS 212359Z 12016G21KT 29/20 A2972 RMK A01 T02910195  RH  056%=      5-min Rain = 0
KAHS 220000Z 11014G21KT 29/19 A2972 RMK A01 T02920185  RH  053%=      5-min Rain = 0
KAHS 220001Z 12013G19KT 29/19 A2972 RMK A01 T02920185  RH  052%=      5-min Rain = 0
KAHS 220002Z 12015KT 29/18 A2972 RMK A01 T02920183  RH  052%=      5-min Rain = 0
KAHS 220003Z 12015G20KT 29/18 A2972 RMK A01 T02910180  RH  051%=      5-min Rain = 0
KAHS 220004Z 12012KT 29/18 A2972 RMK A01 T02910180  RH  051%=      5-min Rain = 0
KAHS 220005Z 11012G17KT 29/18 A2971 RMK A01 T02930181  RH  051%=      5-min Rain = 0
KAHS 220006Z 12015KT 29/18 A2972 RMK A01 T02940179  RH  050%=      5-min Rain = 0
KAHS 220007Z 11016KT 30/18 A2972 RMK A01 T02950177  RH  049%=      5-min Rain = 0
KAHS 220008Z 12013KT 30/18 A2972 RMK A01 T02970175  RH  048%=      5-min Rain = 0
KAHS 220009Z 12012G17KT 30/17 A2972 RMK A01 T02990174  RH  047%=      5-min Rain = 0
KAHS 220010Z 12011KT 30/17 A2972 RMK A01 T03020173  RH  046%=      5-min Rain = 0
KAHS 220011Z 13009KT 30/17 A2972 RMK A01 T03040174  RH  046%=      5-min Rain = 0
KAHS 220012Z 12011KT 31/17 A2972 RMK A01 T03050173  RH  045%=      5-min Rain = 0
KAHS 220013Z 13011KT 31/17 A2972 RMK A01 T03050172  RH  045%=      5-min Rain = 0
KAHS 220014Z 13013KT 30/17 A2973 RMK A01 T03040170  RH  045%=      5-min Rain = 0
KAHS 220015Z 14013KT 30/17 A2973 RMK A01 T03030170  RH  045%=      5-min Rain = 0
KAHS 220016Z 14013KT 30/17 A2973 RMK A01 T03020167  RH  044%=      5-min Rain = 0
KAHS 220017Z 14011KT 30/17 A2973 RMK A01 T03020168  RH  045%=      5-min Rain = 0
KAHS 220018Z 14010KT 30/17 A2973 RMK A01 T03010171  RH  046%=      5-min Rain = 0
KAHS 220019Z 14010KT 30/17 A2973 RMK A01 T03000173  RH  046%=      5-min Rain = 0
KAHS 220020Z 14011KT 30/18 A2973 RMK A01 T02990175  RH  047%=      5-min Rain = 0
KAHS 220021Z 14011KT 30/18 A2973 RMK A01 T02990177  RH  048%=      5-min Rain = 0
KAHS 220022Z 14013KT 30/18 A2973 RMK A01 T03000181  RH  049%=      5-min Rain = 0
KAHS 220023Z 14013KT 30/19 A2973 RMK A01 T02990187  RH  051%=      5-min Rain = 0
KAHS 220024Z 14011KT 30/19 A2973 RMK A01 T02950193  RH  054%=      5-min Rain = 0
KAHS 220025Z 14011KT 29/20 A2973 RMK A01 T02920197  RH  057%=      5-min Rain = 0
KAHS 220026Z 13011KT 29/20 A2973 RMK A01 T02900198  RH  058%=      5-min Rain = 0
KAHS 220027Z 13013KT 29/20 A2973 RMK A01 T02890198  RH  058%=      5-min Rain = 0
KAHS 220028Z 12011KT 29/20 A2972 RMK A01 T02880199  RH  059%=      5-min Rain = 0
KAHS 220029Z 12010KT 29/20 A2972 RMK A01 T02880200  RH  059%=      5-min Rain = 0
KAHS 220030Z 11010KT 29/20 A2972 RMK A01 T02890200  RH  059%=      5-min Rain = 0
KAHS 220031Z 12010KT 29/20 A2972 RMK A01 T02900201  RH  059%=      5-min Rain = 0
KAHS 220032Z 12010KT 29/20 A2972 RMK A01 T02890204  RH  060%=      5-min Rain = 0
KAHS 220033Z 12011KT 29/21 A2972 RMK A01 T02880205  RH  061%=      5-min Rain = 0
KAHS 220034Z 12010KT 29/21 A2972 RMK A01 T02870207  RH  062%=      5-min Rain = 0
KAHS 220035Z 12008KT 29/21 A2972 RMK A01 T02860208  RH  063%=      5-min Rain = 0
KAHS 220036Z 12006KT 29/21 A2972 RMK A01 T02850209  RH  063%=      5-min Rain = 0
KAHS 220037Z 12007KT 29/21 A2971 RMK A01 T02850210  RH  064%=      5-min Rain = 0
KAHS 220038Z 11010KT 29/21 A2971 RMK A01 T02850211  RH  064%=      5-min Rain = 0
KAHS 220039Z 13008KT 29/21 A2971 RMK A01 T02850212  RH  065%=      5-min Rain = 0
KAHS 220040Z 13009KT 29/21 A2971 RMK A01 T02850214  RH  065%=      5-min Rain = 0
KAHS 220041Z 12009KT 29/22 A2971 RMK A01 T02850215  RH  066%=      5-min Rain = 0
KAHS 220042Z 12007KT 28/22 A2971 RMK A01 T02840216  RH  067%=      5-min Rain = 0
KAHS 220043Z 12008KT 28/22 A2971 RMK A01 T02840217  RH  067%=      5-min Rain = 0
KAHS 220044Z 13008KT 28/22 A2971 RMK A01 T02840218  RH  068%=      5-min Rain = 0
KAHS 220045Z 13011G16KT 29/22 A2971 RMK A01 T02850218  RH  067%=      5-min Rain = 0
KAHS 220046Z 13013G18KT 29/22 A2971 RMK A01 T02880218  RH  066%=      5-min Rain = 0
KAHS 220047Z 13013KT 29/22 A2971 RMK A01 T02910216  RH  064%=      5-min Rain = 0
KAHS 220048Z 13012KT 29/22 A297 RMK A01 T02940216  RH  063%=      5-min Rain = 0
KAHS 220049Z 14012KT 30/22 A297 RMK A01 T02950216  RH  063%=      5-min Rain = 0
KAHS 220050Z 13014KT 30/22 A297 RMK A01 T02960216  RH  062%=      5-min Rain = 0
KAHS 220051Z 13013G19KT 30/22 A297 RMK A01 T02970216  RH  062%=      5-min Rain = 0
KAHS 220052Z 13014KT 30/22 A2969 RMK A01 T02990216  RH  061%=      5-min Rain = 0
KAHS 220053Z 12016KT 30/22 A2969 RMK A01 T02990215  RH  061%=      5-min Rain = 0
KAHS 220054Z 12016KT 30/21 A2968 RMK A01 T03010214  RH  060%=      5-min Rain = 0
KAHS 220055Z 13014G19KT 30/21 A2968 RMK A01 T03020214  RH  059%=      5-min Rain = 0
KAHS 220056Z 12014KT 30/22 A2968 RMK A01 T03020215  RH  059%=      5-min Rain = 0
KAHS 220057Z 13014KT 30/22 A2968 RMK A01 T03030215  RH  059%=      5-min Rain = 0
KAHS 220058Z 12016KT 30/22 A2969 RMK A01 T03040215  RH  059%=      5-min Rain = 0
KAHS 220059Z 13013KT 30/22 A2969 RMK A01 T03040215  RH  059%=      5-min Rain = 0
KAHS 220100Z 13016KT 31/22 A297 RMK A01 T03050215  RH  059%=      5-min Rain = 0
KAHS 220101Z 14015G21KT 31/21 A2971 RMK A01 T03060214  RH  058%=      5-min Rain = 0
KAHS 220102Z 14012KT 31/22 A2972 RMK A01 T03080215  RH  058%=      5-min Rain = 0
KAHS 220103Z 14014KT 31/21 A2972 RMK A01 T03080214  RH  057%=      5-min Rain = 0
KAHS 220104Z 14013KT 31/21 A2972 RMK A01 T03080214  RH  057%=      5-min Rain = 0
KAHS 220105Z 13014KT 31/21 A2972 RMK A01 T03080214  RH  057%=      5-min Rain = 0
KAHS 220106Z 13013G18KT 31/21 A2972 RMK A01 T03090214  RH  057%=      5-min Rain = 0
KAHS 220107Z 13012KT 31/21 A2972 RMK A01 T03090214  RH  057%=      5-min Rain = 0
KAHS 220108Z 14014KT 31/21 A2972 RMK A01 T03090214  RH  057%=      5-min Rain = 0
KAHS 220109Z 14012KT 31/21 A2972 RMK A01 T03090214  RH  057%=      5-min Rain = 0
KAHS 220110Z 14014KT 31/21 A2972 RMK A01 T03080214  RH  057%=      5-min Rain = 0
KAHS 220111Z 14013KT 31/21 A2972 RMK A01 T03080214  RH  057%=      5-min Rain = 0
KAHS 220112Z 14011KT 31/22 A2972 RMK A01 T03070215  RH  058%=      5-min Rain = 0
KAHS 220113Z 14012KT 31/22 A2972 RMK A01 T03070216  RH  058%=      5-min Rain = 0
KAHS 220114Z 14012KT 31/22 A2972 RMK A01 T03060216  RH  059%=      5-min Rain = 0
KAHS 220115Z 13013KT 31/22 A2972 RMK A01 T03060216  RH  059%=      5-min Rain = 0
KAHS 220116Z 14011KT 31/22 A2972 RMK A01 T03050216  RH  059%=      5-min Rain = 0
KAHS 220117Z 13014KT 31/22 A2972 RMK A01 T03050216  RH  059%=      5-min Rain = 0
KAHS 220118Z 13013KT 30/22 A2972 RMK A01 T03040215  RH  059%=      5-min Rain = 0
KAHS 220119Z 14013G20KT 30/22 A2972 RMK A01 T03040216  RH  059%=      5-min Rain = 0
KAHS 220120Z 14013KT 30/22 A2973 RMK A01 T03040215  RH  059%=      5-min Rain = 0
KAHS 220121Z 15010KT 30/22 A2974 RMK A01 T03040216  RH  059%=      5-min Rain = 0
KAHS 220122Z 19011G17KT 30/22 A2976 RMK A01 T03040216  RH  059%=      5-min Rain = 0
KAHS 220123Z 24027G37KT 30/21 A2979 RMK A01 T03010213  RH  059%=      5-min Rain = 0
KAHS 220124Z 25023G30KT 28/19 A2979 RMK A01 T02820193  RH  059%=      5-min Rain = 0
KAHS 220125Z 26022G29KT 26/19 A2978 RMK A01 T02630193  RH  065%=      5-min Rain = 0
KAHS 220126Z 24030G40KT 25/19 A2977 RMK A01 T02510191  RH  069%=      5-min Rain = 0
KAHS 220127Z 25026G32KT 24/19 A2977 RMK A01 T02430192  RH  073%=      5-min Rain = 0
KAHS 220128Z 26020KT 24/19 A2978 RMK A01 T02360193  RH  077%=      5-min Rain = 0
KAHS 220129Z 26014G21KT 23/19 A2979 RMK A01 T02320192  RH  079%=      5-min Rain = 0
KAHS 220130Z 26012KT 23/19 A2979 RMK A01 T02280193  RH  081%=      5-min Rain = 0
KAHS 220131Z 27020G31KT 23/20 A2978 RMK A01 T02260195  RH  083%=      5-min Rain = 0.01
KAHS 220132Z 28029KT 22/20 A2978 RMK A01 T02240197  RH  085%=      5-min Rain = 0
KAHS 220133Z 29026KT 22/20 A2979 RMK A01 T02180197  RH  088%=      5-min Rain = 0.01
KAHS 220134Z 28016G22KT 22/20 A298 RMK A01 T02150195  RH  089%=      5-min Rain = 0.01
KAHS 220135Z 26007G18KT 22/20 A298 RMK A01 T02150195  RH  088%=      5-min Rain = 0.01
KAHS 220136Z 21010G15KT 22/19 A298 RMK A01 T02150194  RH  088%=      5-min Rain = 0.01
KAHS 220137Z 25012KT 21/20 A298 RMK A01 T02140195  RH  089%=      5-min Rain = 0
KAHS 220138Z 27011G18KT 21/20 A298 RMK A01 T02130197  RH  090%=      5-min Rain = 0.01
KAHS 220139Z 26012G18KT 21/20 A2979 RMK A01 T02130199  RH  092%=      5-min Rain = 0
KAHS 220140Z 26015G20KT 21/20 A2979 RMK A01 T02130200  RH  092%=      5-min Rain = 0
KAHS 220141Z 26016KT 21/20 A2979 RMK A01 T02140200  RH  092%=      5-min Rain = 0
KAHS 220142Z 25017KT 22/20 A2979 RMK A01 T02150201  RH  091%=      5-min Rain = 0.01
KAHS 220143Z 25015KT 22/20 A2979 RMK A01 T02170200  RH  090%=      5-min Rain = 0
KAHS 220144Z 25013KT 22/20 A2979 RMK A01 T02190201  RH  089%=      5-min Rain = 0
KAHS 220145Z 24013KT 22/20 A2979 RMK A01 T02210201  RH  088%=      5-min Rain = 0
KAHS 220146Z 24013KT 23/20 A2979 RMK A01 T02250201  RH  086%=      5-min Rain = 0
KAHS 220147Z 25010KT 23/20 A2979 RMK A01 T02270201  RH  085%=      5-min Rain = 0
KAHS 220148Z 26009G14KT 23/20 A2979 RMK A01 T02280201  RH  085%=      5-min Rain = 0
KAHS 220149Z 26009KT 23/20 A2978 RMK A01 T02280202  RH  085%=      5-min Rain = 0.01
KAHS 220150Z 26007KT 23/20 A2979 RMK A01 T02290202  RH  085%=      5-min Rain = 0
KAHS 220151Z 26006KT 23/20 A2978 RMK A01 T02290202  RH  084%=      5-min Rain = 0
KAHS 220152Z 26006KT 23/20 A2978 RMK A01 T02300201  RH  084%=      5-min Rain = 0
KAHS 220153Z 28005KT 23/20 A2978 RMK A01 T02310200  RH  083%=      5-min Rain = 0
KAHS 220154Z 28005KT 23/20 A2978 RMK A01 T02320200  RH  082%=      5-min Rain = 0
KAHS 220155Z 28006KT 23/20 A2978 RMK A01 T02340199  RH  081%=      5-min Rain = 0
KAHS 220156Z 28006KT 24/19 A2978 RMK A01 T02390194  RH  076%=      5-min Rain = 0
KAHS 220157Z 26006KT 24/19 A2977 RMK A01 T02440194  RH  074%=      5-min Rain = 0
KAHS 220158Z 25002KT 25/19 A2977 RMK A01 T02490190  RH  070%=      5-min Rain = 0
KAHS 220159Z 33000KT 25/19 A2977 RMK A01 T02530193  RH  069%=      5-min Rain = 0
KAHS 220200Z 28001KT 25/20 A2977 RMK A01 T02520195  RH  071%=      5-min Rain = 0
KAHS 220201Z 29004KT 25/19 A2977 RMK A01 T02520192  RH  069%=      5-min Rain = 0
KAHS 220202Z 30004KT 25/19 A2977 RMK A01 T02540194  RH  069%=      5-min Rain = 0
KAHS 220203Z 33004KT 25/20 A2976 RMK A01 T02520199  RH  072%=      5-min Rain = 0
KAHS 220204Z 04003KT 25/20 A2976 RMK A01 T02490202  RH  075%=      5-min Rain = 0
KAHS 220205Z 13003KT 25/20 A2976 RMK A01 T02470201  RH  075%=      5-min Rain = 0
KAHS 220206Z 14002KT 25/19 A2977 RMK A01 T02510192  RH  070%=      5-min Rain = 0
KAHS 220207Z 12002KT 26/20 A2977 RMK A01 T02550197  RH  070%=      5-min Rain = 0
KAHS 220208Z 27003KT 25/20 A2977 RMK A01 T02530202  RH  073%=      5-min Rain = 0
KAHS 220209Z 28004KT 25/20 A2977 RMK A01 T02490203  RH  075%=      5-min Rain = 0
KAHS 220210Z 28003KT 25/20 A2977 RMK A01 T02470201  RH  076%=      5-min Rain = 0
KAHS 220211Z 28003KT 25/20 A2977 RMK A01 T02460202  RH  076%=      5-min Rain = 0
KAHS 220212Z 25003KT 25/20 A2977 RMK A01 T02450203  RH  077%=      5-min Rain = 0
KAHS 220213Z 23002KT 25/20 A2977 RMK A01 T02450203  RH  078%=      5-min Rain = 0
KAHS 220214Z 22008G16KT 24/21 A2977 RMK A01 T02440206  RH  080%=      5-min Rain = 0
KAHS 220215Z 21013G20KT 25/19 A2978 RMK A01 T02480186  RH  069%=      5-min Rain = 0
KAHS 220216Z 19017G27KT 27/17 A2978 RMK A01 T02670173  RH  056%=      5-min Rain = 0
KAHS 220217Z 19014G20KT 29/11 A2978 RMK A01 T02860113  RH  035%=      5-min Rain = 0
KAHS 220218Z 17017G30KT 31/10 A2977 RMK A01 T03060095  RH  027%=      5-min Rain = 0
KAHS 220219Z 18012KT 31/09 A2977 RMK A01 T03140093  RH  025%=      5-min Rain = 0
KAHS 220220Z 18019G26KT 31/10 A2977 RMK A01 T03130102  RH  027%=      5-min Rain = 0
KAHS 220221Z 16014G23KT 31/10 A2977 RMK A01 T03100102  RH  028%=      5-min Rain = 0
KAHS 220222Z 15005KT 31/08 A2977 RMK A01 T03120081  RH  024%=      5-min Rain = 0
KAHS 220223Z 17005KT 32/06 A2976 RMK A01 T03220063  RH  020%=      5-min Rain = 0
KAHS 220224Z 16012KT 33/08 A2977 RMK A01 T03280078  RH  021%=      5-min Rain = 0
KAHS 220225Z 18011KT 33/09 A2977 RMK A01 T03300085  RH  022%=      5-min Rain = 0
KAHS 220226Z 18010KT 33/10 A2977 RMK A01 T03260099  RH  025%=      5-min Rain = 0
KAHS 220227Z 19010KT 32/10 A2977 RMK A01 T03210100  RH  026%=      5-min Rain = 0
KAHS 220228Z 19016KT 32/09 A2977 RMK A01 T03230094  RH  024%=      5-min Rain = 0
KAHS 220229Z 21013G19KT 32/11 A2978 RMK A01 T03220112  RH  028%=      5-min Rain = 0
KAHS 220230Z 23012KT 31/13 A2978 RMK A01 T03140131  RH  033%=      5-min Rain = 0
KAHS 220231Z 20013KT 31/14 A2978 RMK A01 T03060139  RH  036%=      5-min Rain = 0
KAHS 220232Z 21018KT 30/13 A2978 RMK A01 T03040129  RH  034%=      5-min Rain = 0
KAHS 220233Z 21013KT 31/13 A2978 RMK A01 T03050128  RH  034%=      5-min Rain = 0
KAHS 220234Z 20011KT 30/13 A2978 RMK A01 T03040130  RH  035%=      5-min Rain = 0
KAHS 220235Z 21012KT 30/13 A2978 RMK A01 T03030125  RH  034%=      5-min Rain = 0
KAHS 220236Z 19017G24KT 30/13 A2978 RMK A01 T03020128  RH  034%=      5-min Rain = 0
KAHS 220237Z 18020G25KT 30/13 A2977 RMK A01 T02950131  RH  037%=      5-min Rain = 0
KAHS 220238Z 15028G39KT 29/13 A2977 RMK A01 T02860132  RH  039%=      5-min Rain = 0
KAHS 220239Z 15028G36KT 29/13 A2978 RMK A01 T02870127  RH  037%=      5-min Rain = 0
KAHS 220240Z 17020G30KT 29/12 A2979 RMK A01 T02880124  RH  036%=      5-min Rain = 0
KAHS 220241Z 13007KT 29/12 A2979 RMK A01 T02920119  RH  034%=      5-min Rain = 0.01
KAHS 220242Z 20004KT 30/11 A2979 RMK A01 T02950112  RH  032%=      5-min Rain = 0
KAHS 220243Z 22006KT 30/10 A2979 RMK A01 T03030102  RH  029%=      5-min Rain = 0
KAHS 220244Z 23006KT 30/11 A2979 RMK A01 T03040111  RH  030%=      5-min Rain = 0
KAHS 220245Z 19004KT 30/11 A2979 RMK A01 T03020114  RH  032%=      5-min Rain = 0
KAHS 220246Z 12005KT 30/11 A2979 RMK A01 T03020107  RH  030%=      5-min Rain = 0
KAHS 220247Z 14010G15KT 31/10 A2979 RMK A01 T03070099  RH  028%=      5-min Rain = 0
KAHS 220248Z 15016G21KT 31/11 A2979 RMK A01 T03100108  RH  029%=      5-min Rain = 0
KAHS 220249Z 15016KT 31/11 A2979 RMK A01 T03080111  RH  030%=      5-min Rain = 0
KAHS 220250Z 16017KT 31/11 A2979 RMK A01 T03070109  RH  030%=      5-min Rain = 0
KAHS 220251Z 15013KT 31/11 A2979 RMK A01 T03060114  RH  031%=      5-min Rain = 0
KAHS 220252Z 15012G17KT 30/12 A2979 RMK A01 T03040116  RH  032%=      5-min Rain = 0
KAHS 220253Z 15014G19KT 30/12 A2979 RMK A01 T03030117  RH  032%=      5-min Rain = 0
KAHS 220254Z 15012KT 30/12 A2979 RMK A01 T03010118  RH  032%=      5-min Rain = 0
KAHS 220255Z 16011KT 30/12 A2979 RMK A01 T03010119  RH  032%=      5-min Rain = 0
KAHS 220256Z 16011KT 30/13 A2979 RMK A01 T02990125  RH  034%=      5-min Rain = 0
KAHS 220257Z 15010KT 30/13 A2979 RMK A01 T02960129  RH  036%=      5-min Rain = 0
KAHS 220258Z 15010G15KT 29/13 A2979 RMK A01 T02940130  RH  037%=      5-min Rain = 0
KAHS 220259Z 13013KT 29/12 A2979 RMK A01 T02930122  RH  035%=      5-min Rain = 0
KAHS 220300Z 14013G19KT 29/12 A2979 RMK A01 T02940122  RH  035%=      5-min Rain = 0
KAHS 220301Z 14016G22KT 29/12 A2978 RMK A01 T02940122  RH  035%=      5-min Rain = 0
KAHS 220302Z 13016G22KT 30/12 A2978 RMK A01 T02960119  RH  034%=      5-min Rain = 0
KAHS 220303Z 13018G23KT 30/12 A2978 RMK A01 T02970119  RH  033%=      5-min Rain = 0
KAHS 220304Z 13016KT 30/12 A2978 RMK A01 T02960121  RH  034%=      5-min Rain = 0
KAHS 220305Z 14013KT 30/13 A2978 RMK A01 T02950125  RH  035%=      5-min Rain = 0
KAHS 220306Z 14017KT 29/13 A2978 RMK A01 T02920127  RH  036%=      5-min Rain = 0
KAHS 220307Z 14016G21KT 29/13 A2978 RMK A01 T02900130  RH  037%=      5-min Rain = 0
KAHS 220308Z 14014G22KT 29/13 A2978 RMK A01 T02890131  RH  038%=      5-min Rain = 0
KAHS 220309Z 14015G20KT 29/13 A2978 RMK A01 T02870133  RH  039%=      5-min Rain = 0
KAHS 220310Z 14016G21KT 29/13 A2978 RMK A01 T02870132  RH  038%=      5-min Rain = 0
KAHS 220311Z 14018KT 29/13 A2978 RMK A01 T02890130  RH  038%=      5-min Rain = 0
KAHS 220312Z 14016G21KT 29/13 A2978 RMK A01 T02920129  RH  037%=      5-min Rain = 0
KAHS 220313Z 15016G22KT 29/13 A2978 RMK A01 T02940128  RH  036%=      5-min Rain = 0
KAHS 220314Z 14017G22KT 30/13 A2978 RMK A01 T02960128  RH  036%=      5-min Rain = 0
KAHS 220315Z 15016G22KT 30/13 A2978 RMK A01 T02960129  RH  036%=      5-min Rain = 0
KAHS 220316Z 14015KT 30/13 A2978 RMK A01 T02960128  RH  036%=      5-min Rain = 0
KAHS 220317Z 14017G23KT 30/12 A2978 RMK A01 T02980123  RH  034%=      5-min Rain = 0
KAHS 220318Z 14016KT 30/12 A2979 RMK A01 T02990124  RH  034%=      5-min Rain = 0
KAHS 220319Z 14016KT 30/12 A2979 RMK A01 T02990122  RH  034%=      5-min Rain = 0
KAHS 220320Z 14017KT 30/12 A2978 RMK A01 T02990121  RH  033%=      5-min Rain = 0
KAHS 220321Z 14016G23KT 30/12 A2978 RMK A01 T02990122  RH  034%=      5-min Rain = 0
KAHS 220322Z 14016G21KT 30/12 A2979 RMK A01 T02980124  RH  034%=      5-min Rain = 0
KAHS 220323Z 15017KT 30/13 A2979 RMK A01 T02970125  RH  035%=      5-min Rain = 0
KAHS 220324Z 14015G20KT 30/13 A2979 RMK A01 T02950127  RH  036%=      5-min Rain = 0
KAHS 220325Z 14018G23KT 30/12 A2979 RMK A01 T02950123  RH  035%=      5-min Rain = 0
KAHS 220326Z 14018KT 30/12 A2979 RMK A01 T02960123  RH  034%=      5-min Rain = 0
KAHS 220327Z 15016G22KT 30/13 A2979 RMK A01 T02950125  RH  035%=      5-min Rain = 0
KAHS 220328Z 15017G22KT 29/13 A2979 RMK A01 T02930130  RH  037%=      5-min Rain = 0
KAHS 220329Z 15017KT 29/13 A2979 RMK A01 T02920132  RH  037%=      5-min Rain = 0
KAHS 220330Z 14016G21KT 29/13 A2979 RMK A01 T02930132  RH  037%=      5-min Rain = 0
KAHS 220331Z 14016G22KT 30/13 A2979 RMK A01 T02950131  RH  037%=      5-min Rain = 0
KAHS 220332Z 14016G21KT 30/13 A2979 RMK A01 T02960131  RH  036%=      5-min Rain = 0
KAHS 220333Z 14015KT 30/13 A2979 RMK A01 T02970130  RH  036%=      5-min Rain = 0
KAHS 220334Z 14014G19KT 30/13 A2979 RMK A01 T02970128  RH  036%=      5-min Rain = 0
KAHS 220335Z 14013KT 30/13 A2979 RMK A01 T02970126  RH  035%=      5-min Rain = 0
KAHS 220336Z 14012KT 30/13 A2979 RMK A01 T02970125  RH  035%=      5-min Rain = 0
KAHS 220337Z 15014G19KT 30/12 A2979 RMK A01 T02960124  RH  035%=      5-min Rain = 0
KAHS 220338Z 15014G21KT 30/12 A298 RMK A01 T02970121  RH  034%=      5-min Rain = 0
KAHS 220339Z 14012KT 30/12 A298 RMK A01 T02960124  RH  035%=      5-min Rain = 0
KAHS 220340Z 15012KT 30/12 A298 RMK A01 T02950124  RH  035%=      5-min Rain = 0
KAHS 220341Z 15011KT 29/13 A298 RMK A01 T02940126  RH  036%=      5-min Rain = 0
KAHS 220342Z 14013KT 29/13 A298 RMK A01 T02930126  RH  036%=      5-min Rain = 0
KAHS 220343Z 15012KT 29/13 A298 RMK A01 T02930125  RH  036%=      5-min Rain = 0
KAHS 220344Z 15014G19KT 29/13 A298 RMK A01 T02920125  RH  036%=      5-min Rain = 0
KAHS 220345Z 15012KT 29/13 A298 RMK A01 T02930125  RH  036%=      5-min Rain = 0
KAHS 220346Z 15012KT 29/13 A298 RMK A01 T02930128  RH  036%=      5-min Rain = 0
KAHS 220347Z 16012KT 29/13 A2981 RMK A01 T02920129  RH  037%=      5-min Rain = 0
KAHS 220348Z 16011KT 29/13 A2981 RMK A01 T02910133  RH  038%=      5-min Rain = 0
KAHS 220349Z 16012KT 29/14 A2981 RMK A01 T02880139  RH  040%=      5-min Rain = 0
KAHS 220350Z 17013KT 29/14 A2981 RMK A01 T02870144  RH  042%=      5-min Rain = 0
KAHS 220351Z 17012KT 29/14 A2981 RMK A01 T02850142  RH  042%=      5-min Rain = 0
KAHS 220352Z 17010KT 29/14 A2981 RMK A01 T02850137  RH  040%=      5-min Rain = 0
KAHS 220353Z 16008KT 28/13 A2981 RMK A01 T02840134  RH  040%=      5-min Rain = 0
KAHS 220354Z 16007KT 28/13 A2981 RMK A01 T02830134  RH  040%=      5-min Rain = 0
KAHS 220355Z 15010KT 28/14 A2981 RMK A01 T02820136  RH  041%=      5-min Rain = 0
KAHS 220356Z 16009KT 28/13 A2981 RMK A01 T02820134  RH  040%=      5-min Rain = 0
KAHS 220357Z 16010KT 28/13 A2981 RMK A01 T02840133  RH  040%=      5-min Rain = 0
KAHS 220358Z 16012KT 29/13 A2981 RMK A01 T02850133  RH  039%=      5-min Rain = 0
KAHS 220359Z 16012KT 29/13 A2981 RMK A01 T02860132  RH  039%=      5-min Rain = 0
KAHS 220400Z 17011KT 29/13 A2982 RMK A01 T02870129  RH  038%=      5-min Rain = 0
KAHS 220401Z 17010KT 29/13 A2982 RMK A01 T02870127  RH  037%=      5-min Rain = 0
KAHS 220402Z 18012KT 29/13 A2982 RMK A01 T02870125  RH  037%=      5-min Rain = 0
KAHS 220403Z 18011KT 29/12 A2982 RMK A01 T02860123  RH  036%=      5-min Rain = 0
KAHS 220404Z 19013KT 29/12 A2982 RMK A01 T02860124  RH  037%=      5-min Rain = 0
KAHS 220405Z 19010KT 29/13 A2983 RMK A01 T02850127  RH  038%=      5-min Rain = 0
KAHS 220406Z 19012KT 28/13 A2982 RMK A01 T02830129  RH  039%=      5-min Rain = 0
KAHS 220407Z 19012KT 28/13 A2983 RMK A01 T02830130  RH  039%=      5-min Rain = 0
KAHS 220408Z 20011KT 28/13 A2983 RMK A01 T02820131  RH  040%=      5-min Rain = 0
KAHS 220409Z 19012KT 28/13 A2983 RMK A01 T02800134  RH  041%=      5-min Rain = 0
KAHS 220410Z 18011KT 28/13 A2983 RMK A01 T02800134  RH  041%=      5-min Rain = 0
KAHS 220411Z 17011KT 28/13 A2983 RMK A01 T02790132  RH  040%=      5-min Rain = 0
KAHS 220412Z 18011KT 28/13 A2983 RMK A01 T02790132  RH  040%=      5-min Rain = 0
KAHS 220413Z 18010KT 28/13 A2983 RMK A01 T02800131  RH  040%=      5-min Rain = 0
KAHS 220414Z 18010KT 28/13 A2983 RMK A01 T02800131  RH  040%=      5-min Rain = 0
KAHS 220415Z 18011G16KT 28/13 A2983 RMK A01 T02790132  RH  040%=      5-min Rain = 0
KAHS 220416Z 19010KT 28/13 A2983 RMK A01 T02790131  RH  040%=      5-min Rain = 0
KAHS 220417Z 18009KT 28/13 A2983 RMK A01 T02790133  RH  041%=      5-min Rain = 0
KAHS 220418Z 19009KT 28/13 A2983 RMK A01 T02770133  RH  041%=      5-min Rain = 0
KAHS 220419Z 18008KT 28/13 A2983 RMK A01 T02770133  RH  041%=      5-min Rain = 0
KAHS 220420Z 18010KT 28/13 A2983 RMK A01 T02770133  RH  041%=      5-min Rain = 0
KAHS 220421Z 18010KT 28/13 A2983 RMK A01 T02770133  RH  041%=      5-min Rain = 0
KAHS 220422Z 18009KT 28/13 A2983 RMK A01 T02770133  RH  041%=      5-min Rain = 0
KAHS 220423Z 18009KT 28/13 A2983 RMK A01 T02760133  RH  041%=      5-min Rain = 0
KAHS 220424Z 18008KT 28/14 A2983 RMK A01 T02760135  RH  042%=      5-min Rain = 0
KAHS 220425Z 18008KT 28/14 A2983 RMK A01 T02750136  RH  043%=      5-min Rain = 0
KAHS 220426Z 19009KT 27/14 A2983 RMK A01 T02740137  RH  043%=      5-min Rain = 0
KAHS 220427Z 19008KT 27/14 A2983 RMK A01 T02730139  RH  044%=      5-min Rain = 0
KAHS 220428Z 19008KT 27/14 A2983 RMK A01 T02720141  RH  045%=      5-min Rain = 0
KAHS 220429Z 19007KT 27/14 A2983 RMK A01 T02710142  RH  045%=      5-min Rain = 0
KAHS 220430Z 19008KT 27/14 A2983 RMK A01 T02700144  RH  046%=      5-min Rain = 0
KAHS 220431Z 18007KT 27/14 A2983 RMK A01 T02690144  RH  046%=      5-min Rain = 0
KAHS 220432Z 18007KT 27/14 A2983 RMK A01 T02680144  RH  047%=      5-min Rain = 0
KAHS 220433Z 18008KT 27/14 A2983 RMK A01 T02680143  RH  046%=      5-min Rain = 0
KAHS 220434Z 18008KT 27/14 A2983 RMK A01 T02690143  RH  046%=      5-min Rain = 0
KAHS 220435Z 18008KT 27/14 A2983 RMK A01 T02690142  RH  046%=      5-min Rain = 0
KAHS 220436Z 18007KT 27/14 A2983 RMK A01 T02680144  RH  046%=      5-min Rain = 0
KAHS 220437Z 19006KT 27/15 A2983 RMK A01 T02670145  RH  047%=      5-min Rain = 0
KAHS 220438Z 19006KT 27/15 A2983 RMK A01 T02660145  RH  047%=      5-min Rain = 0
KAHS 220439Z 19006KT 27/15 A2983 RMK A01 T02650146  RH  048%=      5-min Rain = 0
KAHS 220440Z 19007KT 27/15 A2983 RMK A01 T02650147  RH  048%=      5-min Rain = 0
KAHS 220441Z 19007KT 26/15 A2983 RMK A01 T02640148  RH  049%=      5-min Rain = 0
KAHS 220442Z 19006KT 26/15 A2983 RMK A01 T02640148  RH  049%=      5-min Rain = 0
KAHS 220443Z 19006KT 26/15 A2983 RMK A01 T02640150  RH  049%=      5-min Rain = 0
KAHS 220444Z 19006KT 26/15 A2983 RMK A01 T02630150  RH  050%=      5-min Rain = 0
KAHS 220445Z 18006KT 26/15 A2983 RMK A01 T02620150  RH  050%=      5-min Rain = 0
KAHS 220446Z 19007KT 26/15 A2983 RMK A01 T02620150  RH  050%=      5-min Rain = 0
KAHS 220447Z 19006KT 26/15 A2983 RMK A01 T02620150  RH  050%=      5-min Rain = 0
KAHS 220448Z 18006KT 26/15 A2983 RMK A01 T02620151  RH  050%=      5-min Rain = 0
KAHS 220449Z 18006KT 26/15 A2983 RMK A01 T02620151  RH  051%=      5-min Rain = 0
KAHS 220450Z 18006KT 26/15 A2983 RMK A01 T02620152  RH  051%=      5-min Rain = 0
KAHS 220451Z 17006KT 26/15 A2983 RMK A01 T02620154  RH  051%=      5-min Rain = 0
KAHS 220452Z 17006KT 26/16 A2983 RMK A01 T02620156  RH  052%=      5-min Rain = 0
KAHS 220453Z 17006KT 26/16 A2983 RMK A01 T02620159  RH  053%=      5-min Rain = 0
KAHS 220454Z 16006KT 26/16 A2983 RMK A01 T02630161  RH  054%=      5-min Rain = 0
KAHS 220455Z 16006KT 26/16 A2983 RMK A01 T02630164  RH  054%=      5-min Rain = 0
KAHS 220456Z 16008KT 26/17 A2983 RMK A01 T02640167  RH  055%=      5-min Rain = 0
KAHS 220457Z 16008KT 27/17 A2983 RMK A01 T02660171  RH  056%=      5-min Rain = 0
KAHS 220458Z 16009KT 27/18 A2983 RMK A01 T02680175  RH  056%=      5-min Rain = 0
KAHS 220459Z 16009KT 27/18 A2983 RMK A01 T02700177  RH  057%=      5-min Rain = 0

Page generated in 0.071 seconds.